Observation data for McCamey on 03/05/2021      Previous  Date  Next       Current Mesonet Observations  Soil Data  Daily Summary Page  Observations in Plain Language
KMC4 050600Z 24002KT 11/M08 A3001 RMK A01 T01111081  RH  025%=      5-min Rain = 0
KMC4 050601Z 22001KT 11/M08 A3001 RMK A01 T01101081  RH  025%=      5-min Rain = 0
KMC4 050602Z 20000KT 11/M08 A3001 RMK A01 T01101079  RH  026%=      5-min Rain = 0
KMC4 050603Z 17000KT 11/M08 A3001 RMK A01 T01101083  RH  025%=      5-min Rain = 0
KMC4 050604Z 00000KT 11/M08 A3001 RMK A01 T01121084  RH  024%=      5-min Rain = 0
KMC4 050605Z 00000KT 12/M09 A3001 RMK A01 T01151087  RH  023%=      5-min Rain = 0
KMC4 050606Z 05001KT 12/M09 A3001 RMK A01 T01181091  RH  022%=      5-min Rain = 0
KMC4 050607Z 06001KT 12/M09 A3001 RMK A01 T01201086  RH  023%=      5-min Rain = 0
KMC4 050608Z 04001KT 12/M08 A3002 RMK A01 T01201083  RH  023%=      5-min Rain = 0
KMC4 050609Z 05001KT 12/M08 A3002 RMK A01 T01201084  RH  023%=      5-min Rain = 0
KMC4 050610Z 05002KT 12/M09 A3001 RMK A01 T01211087  RH  023%=      5-min Rain = 0
KMC4 050611Z 05002KT 12/M08 A3001 RMK A01 T01221083  RH  023%=      5-min Rain = 0
KMC4 050612Z 07001KT 12/M09 A3001 RMK A01 T01211085  RH  023%=      5-min Rain = 0
KMC4 050613Z 09001KT 12/M09 A3001 RMK A01 T01221093  RH  021%=      5-min Rain = 0
KMC4 050614Z 08001KT 13/M09 A3001 RMK A01 T01251090  RH  022%=      5-min Rain = 0
KMC4 050615Z 07001KT 12/M08 A3001 RMK A01 T01241080  RH  023%=      5-min Rain = 0
KMC4 050616Z 04001KT 12/M09 A3001 RMK A01 T01221088  RH  022%=      5-min Rain = 0
KMC4 050617Z 07001KT 12/M09 A3001 RMK A01 T01231087  RH  022%=      5-min Rain = 0
KMC4 050618Z 08001KT 12/M08 A3001 RMK A01 T01231081  RH  023%=      5-min Rain = 0
KMC4 050619Z 17001KT 12/M08 A3001 RMK A01 T01221084  RH  023%=      5-min Rain = 0
KMC4 050620Z 20001KT 12/M08 A3001 RMK A01 T01211082  RH  023%=      5-min Rain = 0
KMC4 050621Z 16001KT 12/M07 A3001 RMK A01 T01201074  RH  025%=      5-min Rain = 0
KMC4 050622Z 14002KT 12/M07 A3001 RMK A01 T01151070  RH  027%=      5-min Rain = 0
KMC4 050623Z 14003KT 11/M07 A3001 RMK A01 T01111070  RH  027%=      5-min Rain = 0
KMC4 050624Z 15003KT 11/M07 A3001 RMK A01 T01061072  RH  028%=      5-min Rain = 0
KMC4 050625Z 15003KT 11/M08 A3001 RMK A01 T01051076  RH  027%=      5-min Rain = 0
KMC4 050626Z 15003KT 11/M07 A3001 RMK A01 T01051073  RH  028%=      5-min Rain = 0
KMC4 050627Z 15003KT 10/M07 A3001 RMK A01 T01041071  RH  028%=      5-min Rain = 0
KMC4 050628Z 16003KT 10/M07 A3001 RMK A01 T01031072  RH  028%=      5-min Rain = 0
KMC4 050629Z 17003KT 10/M07 A3001 RMK A01 T01021068  RH  030%=      5-min Rain = 0
KMC4 050630Z 17003KT 10/M07 A3001 RMK A01 T01001069  RH  030%=      5-min Rain = 0
KMC4 050631Z 18004KT 10/M07 A3001 RMK A01 T00991067  RH  030%=      5-min Rain = 0
KMC4 050632Z 18005KT 10/M07 A3002 RMK A01 T00981068  RH  030%=      5-min Rain = 0
KMC4 050633Z 18005KT 10/M07 A3002 RMK A01 T00971067  RH  031%=      5-min Rain = 0
KMC4 050634Z 20003KT 10/M07 A3002 RMK A01 T00961068  RH  031%=      5-min Rain = 0
KMC4 050635Z 20003KT 10/M08 A3002 RMK A01 T00961077  RH  029%=      5-min Rain = 0
KMC4 050636Z 22003KT 10/M08 A3002 RMK A01 T01011083  RH  027%=      5-min Rain = 0
KMC4 050637Z 22002KT 10/M08 A3002 RMK A01 T01041079  RH  027%=      5-min Rain = 0
KMC4 050638Z 27002KT 10/M08 A3002 RMK A01 T01041078  RH  027%=      5-min Rain = 0
KMC4 050639Z 30002KT 10/M08 A3002 RMK A01 T01041081  RH  026%=      5-min Rain = 0
KMC4 050640Z 29003KT 11/M09 A3002 RMK A01 T01071088  RH  025%=      5-min Rain = 0
KMC4 050641Z 29005KT 11/M09 A3002 RMK A01 T01131091  RH  023%=      5-min Rain = 0
KMC4 050642Z 30004KT 12/M09 A3002 RMK A01 T01181088  RH  023%=      5-min Rain = 0
KMC4 050643Z 30004KT 12/M09 A3002 RMK A01 T01221091  RH  022%=      5-min Rain = 0
KMC4 050644Z 31005KT 12/M09 A3002 RMK A01 T01241090  RH  022%=      5-min Rain = 0
KMC4 050645Z 29005KT 13/M09 A3002 RMK A01 T01251092  RH  021%=      5-min Rain = 0
KMC4 050646Z 29006KT 13/M10 A3002 RMK A01 T01281095  RH  020%=      5-min Rain = 0
KMC4 050647Z 29007KT 13/M10 A3002 RMK A01 T01311097  RH  020%=      5-min Rain = 0
KMC4 050648Z 29007KT 13/M10 A3002 RMK A01 T01321095  RH  020%=      5-min Rain = 0
KMC4 050649Z 29007KT 13/M09 A3002 RMK A01 T01321093  RH  020%=      5-min Rain = 0
KMC4 050650Z 29007KT 13/M09 A3002 RMK A01 T01321094  RH  020%=      5-min Rain = 0
KMC4 050651Z 29008KT 13/M10 A3002 RMK A01 T01311095  RH  020%=      5-min Rain = 0
KMC4 050652Z 29007KT 13/M09 A3002 RMK A01 T01311094  RH  020%=      5-min Rain = 0
KMC4 050653Z 29008KT 13/M09 A3002 RMK A01 T01301094  RH  020%=      5-min Rain = 0
KMC4 050654Z 29008KT 13/M10 A3002 RMK A01 T01291095  RH  020%=      5-min Rain = 0
KMC4 050655Z 29008KT 13/M10 A3002 RMK A01 T01291095  RH  020%=      5-min Rain = 0
KMC4 050656Z 29008KT 13/M10 A3002 RMK A01 T01291096  RH  020%=      5-min Rain = 0
KMC4 050657Z 29008KT 13/M10 A3002 RMK A01 T01301098  RH  020%=      5-min Rain = 0
KMC4 050658Z 30009KT 13/M10 A3002 RMK A01 T01321099  RH  019%=      5-min Rain = 0
KMC4 050659Z 29008KT 13/M10 A3002 RMK A01 T01331099  RH  019%=      5-min Rain = 0
KMC4 050700Z 29009KT 13/M10 A3002 RMK A01 T01331098  RH  019%=      5-min Rain = 0
KMC4 050701Z 29009KT 13/M10 A3002 RMK A01 T01311097  RH  020%=      5-min Rain = 0
KMC4 050702Z 29009KT 13/M10 A3002 RMK A01 T01301097  RH  020%=      5-min Rain = 0
KMC4 050703Z 29009KT 13/M10 A3003 RMK A01 T01281097  RH  020%=      5-min Rain = 0
KMC4 050704Z 29009KT 13/M10 A3003 RMK A01 T01271096  RH  020%=      5-min Rain = 0
KMC4 050705Z 28008KT 13/M10 A3002 RMK A01 T01261096  RH  020%=      5-min Rain = 0
KMC4 050706Z 29008KT 13/M10 A3002 RMK A01 T01251096  RH  020%=      5-min Rain = 0
KMC4 050707Z 28008KT 13/M10 A3002 RMK A01 T01251096  RH  020%=      5-min Rain = 0
KMC4 050708Z 28008KT 13/M09 A3002 RMK A01 T01251094  RH  021%=      5-min Rain = 0
KMC4 050709Z 28009KT 12/M09 A3002 RMK A01 T01231093  RH  021%=      5-min Rain = 0
KMC4 050710Z 28009KT 12/M09 A3002 RMK A01 T01221092  RH  021%=      5-min Rain = 0
KMC4 050711Z 29009KT 12/M09 A3002 RMK A01 T01211094  RH  021%=      5-min Rain = 0
KMC4 050712Z 29009KT 12/M10 A3002 RMK A01 T01221097  RH  021%=      5-min Rain = 0
KMC4 050713Z 29009KT 12/M10 A3002 RMK A01 T01241098  RH  020%=      5-min Rain = 0
KMC4 050714Z 29008KT 12/M10 A3002 RMK A01 T01241098  RH  020%=      5-min Rain = 0
KMC4 050715Z 30008KT 13/M10 A3002 RMK A01 T01251097  RH  020%=      5-min Rain = 0
KMC4 050716Z 30007KT 12/M10 A3002 RMK A01 T01241096  RH  021%=      5-min Rain = 0
KMC4 050717Z 30007KT 12/M10 A3002 RMK A01 T01231097  RH  020%=      5-min Rain = 0
KMC4 050718Z 30007KT 12/M10 A3002 RMK A01 T01231098  RH  020%=      5-min Rain = 0
KMC4 050719Z 30007KT 12/M10 A3002 RMK A01 T01241098  RH  020%=      5-min Rain = 0
KMC4 050720Z 29007KT 12/M10 A3002 RMK A01 T01241098  RH  020%=      5-min Rain = 0
KMC4 050721Z 29007KT 12/M10 A3002 RMK A01 T01231097  RH  020%=      5-min Rain = 0
KMC4 050722Z 28007KT 12/M10 A3002 RMK A01 T01221097  RH  021%=      5-min Rain = 0
KMC4 050723Z 28008KT 12/M09 A3002 RMK A01 T01201094  RH  021%=      5-min Rain = 0
KMC4 050724Z 28009KT 12/M09 A3002 RMK A01 T01181092  RH  022%=      5-min Rain = 0
KMC4 050725Z 28009KT 12/M09 A3002 RMK A01 T01171092  RH  022%=      5-min Rain = 0
KMC4 050726Z 28009KT 12/M09 A3002 RMK A01 T01171094  RH  022%=      5-min Rain = 0
KMC4 050727Z 29009KT 12/M10 A3002 RMK A01 T01181095  RH  022%=      5-min Rain = 0
KMC4 050728Z 29008KT 12/M10 A3002 RMK A01 T01201095  RH  021%=      5-min Rain = 0
KMC4 050729Z 29007KT 12/M10 A3002 RMK A01 T01221097  RH  021%=      5-min Rain = 0
KMC4 050730Z 28008KT 12/M10 A3003 RMK A01 T01231098  RH  020%=      5-min Rain = 0
KMC4 050731Z 28008KT 12/M10 A3003 RMK A01 T01231097  RH  021%=      5-min Rain = 0
KMC4 050732Z 27008KT 12/M09 A3003 RMK A01 T01231093  RH  021%=      5-min Rain = 0
KMC4 050733Z 27008KT 12/M09 A3003 RMK A01 T01211093  RH  022%=      5-min Rain = 0
KMC4 050734Z 27008KT 12/M09 A3004 RMK A01 T01191094  RH  022%=      5-min Rain = 0
KMC4 050735Z 27008KT 12/M09 A3003 RMK A01 T01191094  RH  021%=      5-min Rain = 0
KMC4 050736Z 27007KT 12/M10 A3003 RMK A01 T01191095  RH  021%=      5-min Rain = 0
KMC4 050737Z 27006KT 12/M10 A3004 RMK A01 T01181095  RH  021%=      5-min Rain = 0
KMC4 050738Z 26006KT 12/M09 A3004 RMK A01 T01181094  RH  022%=      5-min Rain = 0
KMC4 050739Z 26006KT 12/M09 A3004 RMK A01 T01171094  RH  022%=      5-min Rain = 0
KMC4 050740Z 26006KT 12/M09 A3004 RMK A01 T01171094  RH  022%=      5-min Rain = 0
KMC4 050741Z 26004KT 12/M10 A3004 RMK A01 T01171096  RH  022%=      5-min Rain = 0
KMC4 050742Z 24003KT 12/M10 A3004 RMK A01 T01171095  RH  022%=      5-min Rain = 0
KMC4 050743Z 23002KT 12/M09 A3003 RMK A01 T01171093  RH  022%=      5-min Rain = 0
KMC4 050744Z 17001KT 12/M09 A3003 RMK A01 T01151092  RH  023%=      5-min Rain = 0
KMC4 050745Z 14001KT 11/M09 A3003 RMK A01 T01131090  RH  023%=      5-min Rain = 0
KMC4 050746Z 15001KT 11/M09 A3003 RMK A01 T01111090  RH  023%=      5-min Rain = 0
KMC4 050747Z 16001KT 11/M09 A3004 RMK A01 T01101089  RH  024%=      5-min Rain = 0
KMC4 050748Z 15002KT 11/M09 A3004 RMK A01 T01091086  RH  025%=      5-min Rain = 0
KMC4 050749Z 16002KT 11/M09 A3004 RMK A01 T01061087  RH  025%=      5-min Rain = 0
KMC4 050750Z 17001KT 11/M09 A3004 RMK A01 T01051087  RH  025%=      5-min Rain = 0
KMC4 050751Z 19001KT 10/M09 A3004 RMK A01 T01041087  RH  025%=      5-min Rain = 0
KMC4 050752Z 20001KT 10/M09 A3004 RMK A01 T01041087  RH  025%=      5-min Rain = 0
KMC4 050753Z 20001KT 10/M09 A3004 RMK A01 T01031090  RH  025%=      5-min Rain = 0
KMC4 050754Z 20001KT 10/M09 A3004 RMK A01 T01031092  RH  024%=      5-min Rain = 0
KMC4 050755Z 21001KT 10/M09 A3004 RMK A01 T01041091  RH  024%=      5-min Rain = 0
KMC4 050756Z 22002KT 10/M09 A3004 RMK A01 T01041089  RH  025%=      5-min Rain = 0
KMC4 050757Z 21002KT 10/M09 A3004 RMK A01 T01041091  RH  024%=      5-min Rain = 0
KMC4 050758Z 23002KT 11/M09 A3004 RMK A01 T01051089  RH  025%=      5-min Rain = 0
KMC4 050759Z 23002KT 11/M09 A3004 RMK A01 T01051089  RH  025%=      5-min Rain = 0
KMC4 050800Z 24002KT 11/M09 A3004 RMK A01 T01051092  RH  024%=      5-min Rain = 0
KMC4 050801Z 24003KT 11/M09 A3004 RMK A01 T01061092  RH  024%=      5-min Rain = 0
KMC4 050802Z 25003KT 11/M09 A3004 RMK A01 T01071092  RH  024%=      5-min Rain = 0
KMC4 050803Z 25003KT 11/M09 A3004 RMK A01 T01071092  RH  024%=      5-min Rain = 0
KMC4 050804Z 25003KT 11/M09 A3004 RMK A01 T01071092  RH  024%=      5-min Rain = 0
KMC4 050805Z 25003KT 11/M09 A3004 RMK A01 T01071092  RH  024%=      5-min Rain = 0
KMC4 050806Z 26004KT 11/M09 A3004 RMK A01 T01071091  RH  024%=      5-min Rain = 0
KMC4 050807Z 26004KT 11/M09 A3004 RMK A01 T01061089  RH  024%=      5-min Rain = 0
KMC4 050808Z 26004KT 11/M09 A3004 RMK A01 T01051089  RH  025%=      5-min Rain = 0
KMC4 050809Z 26004KT 10/M09 A3004 RMK A01 T01041091  RH  024%=      5-min Rain = 0
KMC4 050810Z 27004KT 10/M09 A3004 RMK A01 T01041090  RH  025%=      5-min Rain = 0
KMC4 050811Z 26004KT 10/M09 A3004 RMK A01 T01031088  RH  025%=      5-min Rain = 0
KMC4 050812Z 27005KT 10/M09 A3004 RMK A01 T01021090  RH  025%=      5-min Rain = 0
KMC4 050813Z 27005KT 10/M09 A3004 RMK A01 T01031090  RH  025%=      5-min Rain = 0
KMC4 050814Z 27005KT 10/M09 A3004 RMK A01 T01021087  RH  026%=      5-min Rain = 0
KMC4 050815Z 27005KT 10/M08 A3004 RMK A01 T01021083  RH  026%=      5-min Rain = 0
KMC4 050816Z 27005KT 10/M09 A3004 RMK A01 T01011086  RH  026%=      5-min Rain = 0
KMC4 050817Z 28005KT 10/M09 A3004 RMK A01 T01011088  RH  025%=      5-min Rain = 0
KMC4 050818Z 28005KT 10/M09 A3004 RMK A01 T01001087  RH  026%=      5-min Rain = 0
KMC4 050819Z 27005KT 10/M09 A3004 RMK A01 T00991088  RH  026%=      5-min Rain = 0
KMC4 050820Z 27005KT 10/M09 A3004 RMK A01 T00981087  RH  026%=      5-min Rain = 0
KMC4 050821Z 27006KT 10/M09 A3004 RMK A01 T00971085  RH  027%=      5-min Rain = 0
KMC4 050822Z 27006KT 10/M08 A3004 RMK A01 T00961083  RH  027%=      5-min Rain = 0
KMC4 050823Z 27007KT 10/M08 A3004 RMK A01 T00951082  RH  028%=      5-min Rain = 0
KMC4 050824Z 27007KT 09/M08 A3004 RMK A01 T00941083  RH  028%=      5-min Rain = 0
KMC4 050825Z 27007KT 09/M08 A3004 RMK A01 T00941083  RH  028%=      5-min Rain = 0
KMC4 050826Z 27007KT 10/M09 A3004 RMK A01 T00951085  RH  027%=      5-min Rain = 0
KMC4 050827Z 27007KT 10/M09 A3004 RMK A01 T00961085  RH  027%=      5-min Rain = 0
KMC4 050828Z 27007KT 10/M09 A3004 RMK A01 T00971085  RH  027%=      5-min Rain = 0
KMC4 050829Z 27007KT 10/M09 A3004 RMK A01 T00961085  RH  027%=      5-min Rain = 0
KMC4 050830Z 27006KT 10/M09 A3004 RMK A01 T00961085  RH  027%=      5-min Rain = 0
KMC4 050831Z 27006KT 10/M09 A3004 RMK A01 T00961085  RH  027%=      5-min Rain = 0
KMC4 050832Z 27006KT 10/M09 A3004 RMK A01 T00951085  RH  027%=      5-min Rain = 0
KMC4 050833Z 27007KT 10/M09 A3004 RMK A01 T00951086  RH  027%=      5-min Rain = 0
KMC4 050834Z 27007KT 10/M09 A3004 RMK A01 T00951086  RH  027%=      5-min Rain = 0
KMC4 050835Z 27007KT 10/M09 A3004 RMK A01 T00951086  RH  027%=      5-min Rain = 0
KMC4 050836Z 28007KT 10/M09 A3005 RMK A01 T00951085  RH  027%=      5-min Rain = 0
KMC4 050837Z 29006KT 09/M08 A3005 RMK A01 T00941084  RH  028%=      5-min Rain = 0
KMC4 050838Z 28007KT 09/M09 A3005 RMK A01 T00941085  RH  027%=      5-min Rain = 0
KMC4 050839Z 27007KT 09/M09 A3004 RMK A01 T00931086  RH  027%=      5-min Rain = 0
KMC4 050840Z 27007KT 09/M09 A3004 RMK A01 T00931088  RH  027%=      5-min Rain = 0
KMC4 050841Z 28006KT 09/M09 A3005 RMK A01 T00931086  RH  027%=      5-min Rain = 0
KMC4 050842Z 28006KT 09/M09 A3004 RMK A01 T00921085  RH  028%=      5-min Rain = 0
KMC4 050843Z 28006KT 09/M09 A3004 RMK A01 T00911087  RH  028%=      5-min Rain = 0
KMC4 050844Z 27006KT 09/M09 A3004 RMK A01 T00911087  RH  028%=      5-min Rain = 0
KMC4 050845Z 27006KT 09/M09 A3004 RMK A01 T00911086  RH  028%=      5-min Rain = 0
KMC4 050846Z 27006KT 09/M09 A3004 RMK A01 T00901085  RH  028%=      5-min Rain = 0
KMC4 050847Z 28006KT 09/M08 A3004 RMK A01 T00901084  RH  028%=      5-min Rain = 0
KMC4 050848Z 28006KT 09/M08 A3004 RMK A01 T00891084  RH  028%=      5-min Rain = 0
KMC4 050849Z 28006KT 09/M09 A3004 RMK A01 T00881085  RH  028%=      5-min Rain = 0
KMC4 050850Z 28006KT 09/M09 A3004 RMK A01 T00871085  RH  029%=      5-min Rain = 0
KMC4 050851Z 27006KT 09/M08 A3004 RMK A01 T00871084  RH  029%=      5-min Rain = 0
KMC4 050852Z 27006KT 09/M08 A3005 RMK A01 T00861084  RH  029%=      5-min Rain = 0
KMC4 050853Z 28006KT 09/M08 A3005 RMK A01 T00851083  RH  030%=      5-min Rain = 0
KMC4 050854Z 28006KT 09/M08 A3005 RMK A01 T00851083  RH  030%=      5-min Rain = 0
KMC4 050855Z 28006KT 08/M08 A3005 RMK A01 T00841083  RH  030%=      5-min Rain = 0
KMC4 050856Z 28006KT 08/M08 A3005 RMK A01 T00841083  RH  030%=      5-min Rain = 0
KMC4 050857Z 28007KT 08/M08 A3005 RMK A01 T00841083  RH  030%=      5-min Rain = 0
KMC4 050858Z 28007KT 08/M08 A3005 RMK A01 T00831083  RH  030%=      5-min Rain = 0
KMC4 050859Z 28007KT 08/M08 A3005 RMK A01 T00831083  RH  030%=      5-min Rain = 0
KMC4 050900Z 28007KT 08/M08 A3006 RMK A01 T00831084  RH  030%=      5-min Rain = 0
KMC4 050901Z 28007KT 08/M08 A3006 RMK A01 T00831084  RH  030%=      5-min Rain = 0
KMC4 050902Z 27006KT 08/M08 A3005 RMK A01 T00831084  RH  030%=      5-min Rain = 0
KMC4 050903Z 28006KT 08/M08 A3005 RMK A01 T00831084  RH  030%=      5-min Rain = 0
KMC4 050904Z 28006KT 08/M08 A3005 RMK A01 T00821083  RH  030%=      5-min Rain = 0
KMC4 050905Z 28006KT 08/M08 A3005 RMK A01 T00821083  RH  030%=      5-min Rain = 0
KMC4 050906Z 27006KT 08/M08 A3005 RMK A01 T00811084  RH  030%=      5-min Rain = 0
KMC4 050907Z 26006KT 08/M08 A3005 RMK A01 T00811083  RH  030%=      5-min Rain = 0
KMC4 050908Z 27006KT 08/M08 A3005 RMK A01 T00811082  RH  031%=      5-min Rain = 0
KMC4 050909Z 27005KT 08/M08 A3005 RMK A01 T00811082  RH  031%=      5-min Rain = 0
KMC4 050910Z 28005KT 08/M08 A3005 RMK A01 T00801081  RH  031%=      5-min Rain = 0
KMC4 050911Z 28005KT 08/M08 A3005 RMK A01 T00801082  RH  031%=      5-min Rain = 0
KMC4 050912Z 27005KT 08/M08 A3005 RMK A01 T00801083  RH  031%=      5-min Rain = 0
KMC4 050913Z 27005KT 08/M08 A3005 RMK A01 T00801083  RH  031%=      5-min Rain = 0
KMC4 050914Z 27005KT 08/M08 A3005 RMK A01 T00801083  RH  031%=      5-min Rain = 0
KMC4 050915Z 26006KT 08/M08 A3005 RMK A01 T00791081  RH  031%=      5-min Rain = 0
KMC4 050916Z 27006KT 08/M08 A3005 RMK A01 T00791080  RH  032%=      5-min Rain = 0
KMC4 050917Z 27006KT 08/M08 A3005 RMK A01 T00781080  RH  032%=      5-min Rain = 0
KMC4 050918Z 27006KT 08/M08 A3005 RMK A01 T00781081  RH  032%=      5-min Rain = 0
KMC4 050919Z 28006KT 08/M08 A3005 RMK A01 T00771081  RH  032%=      5-min Rain = 0
KMC4 050920Z 28006KT 08/M08 A3005 RMK A01 T00771082  RH  031%=      5-min Rain = 0
KMC4 050921Z 29006KT 08/M08 A3005 RMK A01 T00781081  RH  031%=      5-min Rain = 0
KMC4 050922Z 28006KT 08/M08 A3005 RMK A01 T00781081  RH  031%=      5-min Rain = 0
KMC4 050923Z 28006KT 08/M08 A3005 RMK A01 T00781081  RH  031%=      5-min Rain = 0
KMC4 050924Z 28006KT 08/M08 A3005 RMK A01 T00781081  RH  031%=      5-min Rain = 0
KMC4 050925Z 28005KT 08/M08 A3005 RMK A01 T00781080  RH  032%=      5-min Rain = 0
KMC4 050926Z 28005KT 08/M08 A3005 RMK A01 T00781080  RH  032%=      5-min Rain = 0
KMC4 050927Z 28006KT 08/M08 A3005 RMK A01 T00791081  RH  031%=      5-min Rain = 0
KMC4 050928Z 28006KT 08/M08 A3005 RMK A01 T00781081  RH  031%=      5-min Rain = 0
KMC4 050929Z 29006KT 08/M08 A3005 RMK A01 T00781080  RH  032%=      5-min Rain = 0
KMC4 050930Z 29005KT 08/M08 A3005 RMK A01 T00781080  RH  032%=      5-min Rain = 0
KMC4 050931Z 29006KT 08/M08 A3005 RMK A01 T00781081  RH  031%=      5-min Rain = 0
KMC4 050932Z 29006KT 08/M08 A3005 RMK A01 T00781080  RH  032%=      5-min Rain = 0
KMC4 050933Z 28006KT 08/M08 A3005 RMK A01 T00791080  RH  032%=      5-min Rain = 0
KMC4 050934Z 29006KT 08/M08 A3005 RMK A01 T00791080  RH  031%=      5-min Rain = 0
KMC4 050935Z 29006KT 08/M08 A3005 RMK A01 T00801080  RH  031%=      5-min Rain = 0
KMC4 050936Z 30006KT 08/M08 A3005 RMK A01 T00801080  RH  031%=      5-min Rain = 0
KMC4 050937Z 29005KT 08/M08 A3005 RMK A01 T00801080  RH  031%=      5-min Rain = 0
KMC4 050938Z 29005KT 08/M08 A3005 RMK A01 T00801079  RH  031%=      5-min Rain = 0
KMC4 050939Z 29004KT 08/M08 A3005 RMK A01 T00801079  RH  031%=      5-min Rain = 0
KMC4 050940Z 29004KT 08/M08 A3005 RMK A01 T00811079  RH  031%=      5-min Rain = 0
KMC4 050941Z 30003KT 08/M08 A3005 RMK A01 T00801079  RH  031%=      5-min Rain = 0
KMC4 050942Z 30004KT 08/M08 A3005 RMK A01 T00801079  RH  032%=      5-min Rain = 0
KMC4 050943Z 29003KT 08/M08 A3005 RMK A01 T00801079  RH  032%=      5-min Rain = 0
KMC4 050944Z 27003KT 08/M08 A3005 RMK A01 T00801079  RH  031%=      5-min Rain = 0
KMC4 050945Z 30003KT 08/M08 A3005 RMK A01 T00801080  RH  031%=      5-min Rain = 0
KMC4 050946Z 31003KT 08/M08 A3005 RMK A01 T00801080  RH  031%=      5-min Rain = 0
KMC4 050947Z 32003KT 08/M08 A3006 RMK A01 T00801079  RH  031%=      5-min Rain = 0
KMC4 050948Z 33003KT 08/M08 A3006 RMK A01 T00811079  RH  031%=      5-min Rain = 0
KMC4 050949Z 32001KT 08/M08 A3006 RMK A01 T00821078  RH  031%=      5-min Rain = 0
KMC4 050950Z 29001KT 08/M08 A3006 RMK A01 T00811076  RH  032%=      5-min Rain = 0
KMC4 050951Z 30002KT 08/M08 A3006 RMK A01 T00801076  RH  032%=      5-min Rain = 0
KMC4 050952Z 33002KT 08/M08 A3006 RMK A01 T00791077  RH  032%=      5-min Rain = 0
KMC4 050953Z 31002KT 08/M08 A3006 RMK A01 T00791076  RH  032%=      5-min Rain = 0
KMC4 050954Z 29002KT 08/M08 A3006 RMK A01 T00781076  RH  033%=      5-min Rain = 0
KMC4 050955Z 28003KT 08/M08 A3006 RMK A01 T00781078  RH  032%=      5-min Rain = 0
KMC4 050956Z 29003KT 08/M08 A3006 RMK A01 T00781079  RH  032%=      5-min Rain = 0
KMC4 050957Z 30003KT 08/M08 A3006 RMK A01 T00791079  RH  032%=      5-min Rain = 0
KMC4 050958Z 30002KT 08/M08 A3006 RMK A01 T00801079  RH  032%=      5-min Rain = 0
KMC4 050959Z 30003KT 08/M08 A3006 RMK A01 T00801079  RH  032%=      5-min Rain = 0
KMC4 051000Z 31003KT 08/M08 A3006 RMK A01 T00801078  RH  032%=      5-min Rain = 0
KMC4 051001Z 30002KT 08/M08 A3006 RMK A01 T00801077  RH  032%=      5-min Rain = 0
KMC4 051002Z 32003KT 08/M08 A3006 RMK A01 T00801077  RH  032%=      5-min Rain = 0
KMC4 051003Z 32003KT 08/M08 A3006 RMK A01 T00801077  RH  032%=      5-min Rain = 0
KMC4 051004Z 32003KT 08/M08 A3006 RMK A01 T00811076  RH  032%=      5-min Rain = 0
KMC4 051005Z 29003KT 08/M08 A3006 RMK A01 T00811075  RH  032%=      5-min Rain = 0
KMC4 051006Z 29003KT 08/M07 A3006 RMK A01 T00811073  RH  033%=      5-min Rain = 0
KMC4 051007Z 29003KT 08/M07 A3006 RMK A01 T00811073  RH  033%=      5-min Rain = 0
KMC4 051008Z 29003KT 08/M07 A3006 RMK A01 T00811074  RH  032%=      5-min Rain = 0
KMC4 051009Z 29003KT 08/M08 A3006 RMK A01 T00811075  RH  032%=      5-min Rain = 0
KMC4 051010Z 29003KT 08/M08 A3006 RMK A01 T00801075  RH  032%=      5-min Rain = 0
KMC4 051011Z 29003KT 08/M08 A3006 RMK A01 T00811075  RH  032%=      5-min Rain = 0
KMC4 051012Z 30003KT 08/M08 A3006 RMK A01 T00801076  RH  032%=      5-min Rain = 0
KMC4 051013Z 31003KT 08/M08 A3006 RMK A01 T00801076  RH  032%=      5-min Rain = 0
KMC4 051014Z 33003KT 08/M08 A3006 RMK A01 T00801075  RH  032%=      5-min Rain = 0
KMC4 051015Z 33003KT 08/M08 A3006 RMK A01 T00801076  RH  032%=      5-min Rain = 0
KMC4 051016Z 33003KT 08/M08 A3006 RMK A01 T00811076  RH  032%=      5-min Rain = 0
KMC4 051017Z 34003KT 08/M08 A3006 RMK A01 T00811076  RH  032%=      5-min Rain = 0
KMC4 051018Z 33003KT 08/M08 A3006 RMK A01 T00811076  RH  032%=      5-min Rain = 0
KMC4 051019Z 33003KT 08/M08 A3006 RMK A01 T00811076  RH  032%=      5-min Rain = 0
KMC4 051020Z 33003KT 08/M08 A3006 RMK A01 T00821077  RH  031%=      5-min Rain = 0
KMC4 051021Z 33003KT 08/M08 A3006 RMK A01 T00841077  RH  031%=      5-min Rain = 0
KMC4 051022Z 33004KT 08/M08 A3006 RMK A01 T00841077  RH  031%=      5-min Rain = 0
KMC4 051023Z 33004KT 09/M08 A3007 RMK A01 T00851077  RH  031%=      5-min Rain = 0
KMC4 051024Z 33003KT 08/M08 A3007 RMK A01 T00841077  RH  031%=      5-min Rain = 0
KMC4 051025Z 32003KT 08/M08 A3007 RMK A01 T00841076  RH  031%=      5-min Rain = 0
KMC4 051026Z 31004KT 08/M08 A3007 RMK A01 T00831077  RH  032%=      5-min Rain = 0
KMC4 051027Z 31004KT 08/M07 A3007 RMK A01 T00821074  RH  032%=      5-min Rain = 0
KMC4 051028Z 31004KT 08/M07 A3007 RMK A01 T00811074  RH  033%=      5-min Rain = 0
KMC4 051029Z 31004KT 08/M08 A3007 RMK A01 T00801075  RH  033%=      5-min Rain = 0
KMC4 051030Z 31004KT 08/M07 A3007 RMK A01 T00791074  RH  033%=      5-min Rain = 0
KMC4 051031Z 31004KT 08/M07 A3007 RMK A01 T00791073  RH  033%=      5-min Rain = 0
KMC4 051032Z 31004KT 08/M07 A3007 RMK A01 T00781074  RH  033%=      5-min Rain = 0
KMC4 051033Z 31005KT 08/M07 A3007 RMK A01 T00781074  RH  033%=      5-min Rain = 0
KMC4 051034Z 31005KT 08/M07 A3007 RMK A01 T00771074  RH  033%=      5-min Rain = 0
KMC4 051035Z 31005KT 08/M07 A3007 RMK A01 T00781073  RH  034%=      5-min Rain = 0
KMC4 051036Z 31004KT 08/M07 A3007 RMK A01 T00771073  RH  034%=      5-min Rain = 0
KMC4 051037Z 31005KT 08/M07 A3007 RMK A01 T00771073  RH  034%=      5-min Rain = 0
KMC4 051038Z 30005KT 08/M07 A3007 RMK A01 T00771074  RH  034%=      5-min Rain = 0
KMC4 051039Z 29005KT 08/M07 A3007 RMK A01 T00771074  RH  034%=      5-min Rain = 0
KMC4 051040Z 29005KT 08/M07 A3007 RMK A01 T00771074  RH  034%=      5-min Rain = 0
KMC4 051041Z 29005KT 08/M07 A3007 RMK A01 T00771074  RH  034%=      5-min Rain = 0
KMC4 051042Z 29005KT 08/M07 A3007 RMK A01 T00771074  RH  033%=      5-min Rain = 0
KMC4 051043Z 29005KT 08/M07 A3007 RMK A01 T00771074  RH  033%=      5-min Rain = 0
KMC4 051044Z 29005KT 08/M07 A3007 RMK A01 T00771074  RH  033%=      5-min Rain = 0
KMC4 051045Z 29005KT 08/M07 A3007 RMK A01 T00761072  RH  034%=      5-min Rain = 0
KMC4 051046Z 29005KT 08/M07 A3007 RMK A01 T00751073  RH  034%=      5-min Rain = 0
KMC4 051047Z 28005KT 08/M07 A3007 RMK A01 T00751073  RH  034%=      5-min Rain = 0
KMC4 051048Z 28005KT 08/M07 A3007 RMK A01 T00751073  RH  034%=      5-min Rain = 0
KMC4 051049Z 28005KT 07/M07 A3007 RMK A01 T00741073  RH  034%=      5-min Rain = 0
KMC4 051050Z 28005KT 07/M07 A3007 RMK A01 T00731072  RH  035%=      5-min Rain = 0
KMC4 051051Z 29005KT 07/M07 A3007 RMK A01 T00731072  RH  035%=      5-min Rain = 0
KMC4 051052Z 29005KT 07/M07 A3007 RMK A01 T00721071  RH  036%=      5-min Rain = 0
KMC4 051053Z 30004KT 07/M07 A3007 RMK A01 T00701071  RH  036%=      5-min Rain = 0
KMC4 051054Z 30005KT 07/M07 A3007 RMK A01 T00701071  RH  036%=      5-min Rain = 0
KMC4 051055Z 30005KT 07/M07 A3007 RMK A01 T00701072  RH  036%=      5-min Rain = 0
KMC4 051056Z 30006KT 07/M07 A3007 RMK A01 T00711072  RH  036%=      5-min Rain = 0
KMC4 051057Z 30005KT 07/M07 A3007 RMK A01 T00721072  RH  035%=      5-min Rain = 0
KMC4 051058Z 29005KT 07/M07 A3007 RMK A01 T00731071  RH  035%=      5-min Rain = 0
KMC4 051059Z 29005KT 07/M07 A3007 RMK A01 T00731071  RH  035%=      5-min Rain = 0
KMC4 051100Z 29005KT 07/M07 A3007 RMK A01 T00731071  RH  035%=      5-min Rain = 0
KMC4 051101Z 29005KT 07/M07 A3007 RMK A01 T00731071  RH  035%=      5-min Rain = 0
KMC4 051102Z 29005KT 07/M07 A3007 RMK A01 T00741072  RH  035%=      5-min Rain = 0
KMC4 051103Z 30005KT 08/M07 A3007 RMK A01 T00751072  RH  034%=      5-min Rain = 0
KMC4 051104Z 29005KT 08/M07 A3007 RMK A01 T00751073  RH  034%=      5-min Rain = 0
KMC4 051105Z 29006KT 08/M07 A3007 RMK A01 T00751073  RH  034%=      5-min Rain = 0
KMC4 051106Z 28006KT 08/M07 A3007 RMK A01 T00751073  RH  034%=      5-min Rain = 0
KMC4 051107Z 29006KT 08/M07 A3007 RMK A01 T00761073  RH  034%=      5-min Rain = 0
KMC4 051108Z 28006KT 08/M07 A3007 RMK A01 T00761073  RH  034%=      5-min Rain = 0
KMC4 051109Z 28006KT 08/M07 A3007 RMK A01 T00761072  RH  034%=      5-min Rain = 0
KMC4 051110Z 29006KT 08/M07 A3008 RMK A01 T00761072  RH  034%=      5-min Rain = 0
KMC4 051111Z 28006KT 08/M07 A3008 RMK A01 T00751071  RH  035%=      5-min Rain = 0
KMC4 051112Z 28006KT 08/M07 A3008 RMK A01 T00751072  RH  035%=      5-min Rain = 0
KMC4 051113Z 28006KT 07/M07 A3008 RMK A01 T00741072  RH  035%=      5-min Rain = 0
KMC4 051114Z 29006KT 07/M07 A3008 RMK A01 T00731071  RH  035%=      5-min Rain = 0
KMC4 051115Z 28006KT 07/M07 A3008 RMK A01 T00721070  RH  036%=      5-min Rain = 0
KMC4 051116Z 29006KT 07/M07 A3008 RMK A01 T00711071  RH  036%=      5-min Rain = 0
KMC4 051117Z 29006KT 07/M07 A3008 RMK A01 T00711070  RH  036%=      5-min Rain = 0
KMC4 051118Z 29006KT 07/M07 A3008 RMK A01 T00711069  RH  036%=      5-min Rain = 0
KMC4 051119Z 29006KT 07/M07 A3008 RMK A01 T00701070  RH  036%=      5-min Rain = 0
KMC4 051120Z 30006KT 07/M07 A3008 RMK A01 T00701070  RH  036%=      5-min Rain = 0
KMC4 051121Z 29006KT 07/M07 A3008 RMK A01 T00701070  RH  036%=      5-min Rain = 0
KMC4 051122Z 29006KT 07/M07 A3008 RMK A01 T00711070  RH  036%=      5-min Rain = 0
KMC4 051123Z 29006KT 07/M07 A3008 RMK A01 T00721070  RH  036%=      5-min Rain = 0
KMC4 051124Z 29006KT 07/M07 A3008 RMK A01 T00731069  RH  036%=      5-min Rain = 0
KMC4 051125Z 29005KT 07/M07 A3008 RMK A01 T00731069  RH  036%=      5-min Rain = 0
KMC4 051126Z 29005KT 07/M07 A3008 RMK A01 T00731069  RH  036%=      5-min Rain = 0
KMC4 051127Z 29005KT 07/M07 A3008 RMK A01 T00721068  RH  036%=      5-min Rain = 0
KMC4 051128Z 29005KT 07/M07 A3008 RMK A01 T00721069  RH  036%=      5-min Rain = 0
KMC4 051129Z 29006KT 07/M07 A3008 RMK A01 T00711068  RH  036%=      5-min Rain = 0
KMC4 051130Z 29006KT 07/M07 A3008 RMK A01 T00711068  RH  036%=      5-min Rain = 0
KMC4 051131Z 28006KT 07/M07 A3008 RMK A01 T00701068  RH  037%=      5-min Rain = 0
KMC4 051132Z 28006KT 07/M07 A3008 RMK A01 T00701068  RH  037%=      5-min Rain = 0
KMC4 051133Z 28006KT 07/M07 A3008 RMK A01 T00701069  RH  037%=      5-min Rain = 0
KMC4 051134Z 28005KT 07/M07 A3008 RMK A01 T00691069  RH  037%=      5-min Rain = 0
KMC4 051135Z 28006KT 07/M07 A3008 RMK A01 T00691069  RH  037%=      5-min Rain = 0
KMC4 051136Z 27006KT 07/M07 A3008 RMK A01 T00691069  RH  037%=      5-min Rain = 0
KMC4 051137Z 27005KT 07/M07 A3008 RMK A01 T00671069  RH  037%=      5-min Rain = 0
KMC4 051138Z 28005KT 07/M07 A3008 RMK A01 T00661069  RH  037%=      5-min Rain = 0
KMC4 051139Z 28005KT 07/M07 A3008 RMK A01 T00651069  RH  038%=      5-min Rain = 0
KMC4 051140Z 27005KT 06/M07 A3008 RMK A01 T00641068  RH  038%=      5-min Rain = 0
KMC4 051141Z 27005KT 06/M07 A3008 RMK A01 T00641068  RH  038%=      5-min Rain = 0
KMC4 051142Z 27005KT 06/M07 A3008 RMK A01 T00631068  RH  039%=      5-min Rain = 0
KMC4 051143Z 27005KT 06/M07 A3008 RMK A01 T00631068  RH  039%=      5-min Rain = 0
KMC4 051144Z 28005KT 06/M07 A3008 RMK A01 T00621068  RH  039%=      5-min Rain = 0
KMC4 051145Z 28005KT 06/M07 A3008 RMK A01 T00621067  RH  039%=      5-min Rain = 0
KMC4 051146Z 28004KT 06/M07 A3008 RMK A01 T00621067  RH  039%=      5-min Rain = 0
KMC4 051147Z 27004KT 06/M07 A3008 RMK A01 T00621067  RH  039%=      5-min Rain = 0
KMC4 051148Z 27004KT 06/M07 A3008 RMK A01 T00621067  RH  039%=      5-min Rain = 0
KMC4 051149Z 27004KT 06/M07 A3008 RMK A01 T00621066  RH  039%=      5-min Rain = 0
KMC4 051150Z 27004KT 06/M07 A3008 RMK A01 T00621066  RH  040%=      5-min Rain = 0
KMC4 051151Z 27004KT 06/M07 A3008 RMK A01 T00611066  RH  040%=      5-min Rain = 0
KMC4 051152Z 27004KT 06/M07 A3008 RMK A01 T00611065  RH  040%=      5-min Rain = 0
KMC4 051153Z 27004KT 06/M06 A3008 RMK A01 T00611064  RH  040%=      5-min Rain = 0
KMC4 051154Z 27004KT 06/M06 A3008 RMK A01 T00611063  RH  041%=      5-min Rain = 0
KMC4 051155Z 27003KT 06/M06 A3008 RMK A01 T00601063  RH  041%=      5-min Rain = 0
KMC4 051156Z 27003KT 06/M06 A3008 RMK A01 T00601063  RH  041%=      5-min Rain = 0
KMC4 051157Z 27004KT 06/M06 A3008 RMK A01 T00591063  RH  041%=      5-min Rain = 0
KMC4 051158Z 26004KT 06/M06 A3008 RMK A01 T00591062  RH  041%=      5-min Rain = 0
KMC4 051159Z 26004KT 06/M06 A3008 RMK A01 T00581063  RH  042%=      5-min Rain = 0
KMC4 051200Z 27004KT 06/M06 A3008 RMK A01 T00581063  RH  042%=      5-min Rain = 0
KMC4 051201Z 27004KT 06/M06 A3008 RMK A01 T00571062  RH  042%=      5-min Rain = 0
KMC4 051202Z 27003KT 06/M06 A3009 RMK A01 T00571061  RH  042%=      5-min Rain = 0
KMC4 051203Z 27004KT 06/M06 A3009 RMK A01 T00571061  RH  042%=      5-min Rain = 0
KMC4 051204Z 27004KT 06/M06 A3009 RMK A01 T00561061  RH  042%=      5-min Rain = 0
KMC4 051205Z 26004KT 06/M06 A3009 RMK A01 T00561061  RH  042%=      5-min Rain = 0
KMC4 051206Z 26004KT 06/M06 A3009 RMK A01 T00561061  RH  043%=      5-min Rain = 0
KMC4 051207Z 26005KT 06/M06 A3009 RMK A01 T00561060  RH  043%=      5-min Rain = 0
KMC4 051208Z 27005KT 06/M06 A3009 RMK A01 T00551061  RH  043%=      5-min Rain = 0
KMC4 051209Z 27004KT 06/M06 A3009 RMK A01 T00551061  RH  043%=      5-min Rain = 0
KMC4 051210Z 27004KT 06/M06 A3009 RMK A01 T00561061  RH  043%=      5-min Rain = 0
KMC4 051211Z 27005KT 06/M06 A3009 RMK A01 T00561060  RH  043%=      5-min Rain = 0
KMC4 051212Z 27005KT 06/M06 A3009 RMK A01 T00551060  RH  043%=      5-min Rain = 0
KMC4 051213Z 27005KT 06/M06 A3009 RMK A01 T00551060  RH  043%=      5-min Rain = 0
KMC4 051214Z 27004KT 05/M06 A3009 RMK A01 T00541060  RH  043%=      5-min Rain = 0
KMC4 051215Z 27005KT 05/M06 A3009 RMK A01 T00541060  RH  044%=      5-min Rain = 0
KMC4 051216Z 27005KT 05/M06 A3009 RMK A01 T00531060  RH  044%=      5-min Rain = 0
KMC4 051217Z 27004KT 05/M06 A3009 RMK A01 T00531060  RH  044%=      5-min Rain = 0
KMC4 051218Z 27004KT 05/M06 A3009 RMK A01 T00521060  RH  044%=      5-min Rain = 0
KMC4 051219Z 27004KT 05/M06 A3009 RMK A01 T00531059  RH  044%=      5-min Rain = 0
KMC4 051220Z 27004KT 05/M06 A3009 RMK A01 T00521059  RH  044%=      5-min Rain = 0
KMC4 051221Z 27004KT 05/M06 A3009 RMK A01 T00521058  RH  045%=      5-min Rain = 0
KMC4 051222Z 27004KT 05/M06 A3009 RMK A01 T00521057  RH  045%=      5-min Rain = 0
KMC4 051223Z 27004KT 05/M06 A3009 RMK A01 T00511057  RH  046%=      5-min Rain = 0
KMC4 051224Z 27004KT 05/M06 A3009 RMK A01 T00511057  RH  045%=      5-min Rain = 0
KMC4 051225Z 27004KT 05/M06 A3009 RMK A01 T00511059  RH  045%=      5-min Rain = 0
KMC4 051226Z 27004KT 05/M06 A301 RMK A01 T00511059  RH  045%=      5-min Rain = 0
KMC4 051227Z 27004KT 05/M06 A301 RMK A01 T00511059  RH  045%=      5-min Rain = 0
KMC4 051228Z 26005KT 05/M06 A301 RMK A01 T00511058  RH  045%=      5-min Rain = 0
KMC4 051229Z 26005KT 05/M06 A301 RMK A01 T00511057  RH  046%=      5-min Rain = 0
KMC4 051230Z 26005KT 05/M06 A301 RMK A01 T00501057  RH  046%=      5-min Rain = 0
KMC4 051231Z 25005KT 05/M06 A301 RMK A01 T00501057  RH  046%=      5-min Rain = 0
KMC4 051232Z 25005KT 05/M06 A301 RMK A01 T00501058  RH  046%=      5-min Rain = 0
KMC4 051233Z 25004KT 05/M06 A301 RMK A01 T00491058  RH  046%=      5-min Rain = 0
KMC4 051234Z 25005KT 05/M06 A301 RMK A01 T00491057  RH  046%=      5-min Rain = 0
KMC4 051235Z 25004KT 05/M06 A301 RMK A01 T00491057  RH  046%=      5-min Rain = 0
KMC4 051236Z 25004KT 05/M06 A301 RMK A01 T00481056  RH  047%=      5-min Rain = 0
KMC4 051237Z 26005KT 05/M06 A301 RMK A01 T00481057  RH  047%=      5-min Rain = 0
KMC4 051238Z 25003KT 05/M06 A301 RMK A01 T00481058  RH  046%=      5-min Rain = 0
KMC4 051239Z 24003KT 05/M06 A301 RMK A01 T00481057  RH  046%=      5-min Rain = 0
KMC4 051240Z 23002KT 05/M06 A301 RMK A01 T00481056  RH  047%=      5-min Rain = 0
KMC4 051241Z 23002KT 05/M06 A301 RMK A01 T00481055  RH  047%=      5-min Rain = 0
KMC4 051242Z 22003KT 05/M06 A301 RMK A01 T00481056  RH  047%=      5-min Rain = 0
KMC4 051243Z 22003KT 05/M06 A301 RMK A01 T00471056  RH  047%=      5-min Rain = 0
KMC4 051244Z 22004KT 05/M06 A301 RMK A01 T00471057  RH  047%=      5-min Rain = 0
KMC4 051245Z 21003KT 05/M06 A3011 RMK A01 T00461057  RH  047%=      5-min Rain = 0
KMC4 051246Z 21003KT 05/M06 A3011 RMK A01 T00461056  RH  048%=      5-min Rain = 0
KMC4 051247Z 21003KT 05/M06 A3011 RMK A01 T00451056  RH  048%=      5-min Rain = 0
KMC4 051248Z 20003KT 04/M06 A3011 RMK A01 T00441055  RH  049%=      5-min Rain = 0
KMC4 051249Z 20003KT 04/M06 A3011 RMK A01 T00431055  RH  049%=      5-min Rain = 0
KMC4 051250Z 20003KT 04/M06 A3011 RMK A01 T00421055  RH  049%=      5-min Rain = 0
KMC4 051251Z 21003KT 04/M06 A3011 RMK A01 T00421055  RH  049%=      5-min Rain = 0
KMC4 051252Z 21003KT 04/M06 A3011 RMK A01 T00421056  RH  049%=      5-min Rain = 0
KMC4 051253Z 20004KT 04/M06 A3011 RMK A01 T00421057  RH  049%=      5-min Rain = 0
KMC4 051254Z 21004KT 04/M06 A3011 RMK A01 T00431056  RH  048%=      5-min Rain = 0
KMC4 051255Z 21004KT 04/M06 A3011 RMK A01 T00431056  RH  049%=      5-min Rain = 0
KMC4 051256Z 22003KT 04/M06 A3011 RMK A01 T00431055  RH  049%=      5-min Rain = 0
KMC4 051257Z 22004KT 04/M05 A3011 RMK A01 T00431054  RH  049%=      5-min Rain = 0
KMC4 051258Z 22004KT 04/M05 A3011 RMK A01 T00431054  RH  049%=      5-min Rain = 0
KMC4 051259Z 24004KT 04/M06 A3011 RMK A01 T00441056  RH  048%=      5-min Rain = 0
KMC4 051300Z 23003KT 05/M06 A3011 RMK A01 T00461055  RH  048%=      5-min Rain = 0
KMC4 051301Z 23004KT 05/M06 A3011 RMK A01 T00481055  RH  047%=      5-min Rain = 0
KMC4 051302Z 23004KT 05/M06 A3011 RMK A01 T00501055  RH  047%=      5-min Rain = 0
KMC4 051303Z 23004KT 05/M06 A3011 RMK A01 T00531055  RH  046%=      5-min Rain = 0
KMC4 051304Z 24004KT 06/M06 A3011 RMK A01 T00551055  RH  045%=      5-min Rain = 0
KMC4 051305Z 24004KT 06/M06 A3011 RMK A01 T00561055  RH  045%=      5-min Rain = 0
KMC4 051306Z 24003KT 06/M05 A3011 RMK A01 T00581054  RH  044%=      5-min Rain = 0
KMC4 051307Z 25003KT 06/M05 A3011 RMK A01 T00581054  RH  044%=      5-min Rain = 0
KMC4 051308Z 25003KT 06/M05 A3011 RMK A01 T00581053  RH  045%=      5-min Rain = 0
KMC4 051309Z 25003KT 06/M05 A3011 RMK A01 T00571053  RH  045%=      5-min Rain = 0
KMC4 051310Z 26003KT 06/M05 A3012 RMK A01 T00571052  RH  045%=      5-min Rain = 0
KMC4 051311Z 26004KT 06/M05 A3012 RMK A01 T00571052  RH  045%=      5-min Rain = 0
KMC4 051312Z 27003KT 06/M05 A3012 RMK A01 T00571053  RH  045%=      5-min Rain = 0
KMC4 051313Z 27003KT 06/M05 A3012 RMK A01 T00581053  RH  045%=      5-min Rain = 0
KMC4 051314Z 27003KT 06/M05 A3012 RMK A01 T00581053  RH  045%=      5-min Rain = 0
KMC4 051315Z 27003KT 06/M05 A3012 RMK A01 T00581053  RH  045%=      5-min Rain = 0
KMC4 051316Z 27003KT 06/M05 A3012 RMK A01 T00581052  RH  045%=      5-min Rain = 0
KMC4 051317Z 26003KT 06/M05 A3012 RMK A01 T00581052  RH  045%=      5-min Rain = 0
KMC4 051318Z 26003KT 06/M05 A3012 RMK A01 T00581052  RH  045%=      5-min Rain = 0
KMC4 051319Z 26003KT 06/M05 A3012 RMK A01 T00581051  RH  045%=      5-min Rain = 0
KMC4 051320Z 26003KT 06/M05 A3012 RMK A01 T00581050  RH  046%=      5-min Rain = 0
KMC4 051321Z 26003KT 06/M05 A3012 RMK A01 T00581050  RH  046%=      5-min Rain = 0
KMC4 051322Z 26003KT 06/M05 A3012 RMK A01 T00581050  RH  046%=      5-min Rain = 0
KMC4 051323Z 26003KT 06/M05 A3012 RMK A01 T00581050  RH  046%=      5-min Rain = 0
KMC4 051324Z 26002KT 06/M05 A3012 RMK A01 T00581051  RH  046%=      5-min Rain = 0
KMC4 051325Z 25003KT 06/M05 A3012 RMK A01 T00581051  RH  045%=      5-min Rain = 0
KMC4 051326Z 25003KT 06/M05 A3012 RMK A01 T00591051  RH  045%=      5-min Rain = 0
KMC4 051327Z 25003KT 06/M05 A3013 RMK A01 T00591051  RH  045%=      5-min Rain = 0
KMC4 051328Z 24003KT 06/M05 A3013 RMK A01 T00591051  RH  045%=      5-min Rain = 0
KMC4 051329Z 25004KT 06/M05 A3013 RMK A01 T00601051  RH  045%=      5-min Rain = 0
KMC4 051330Z 25004KT 06/M05 A3013 RMK A01 T00601051  RH  045%=      5-min Rain = 0
KMC4 051331Z 25004KT 06/M05 A3013 RMK A01 T00611051  RH  045%=      5-min Rain = 0
KMC4 051332Z 26004KT 06/M05 A3013 RMK A01 T00621051  RH  044%=      5-min Rain = 0
KMC4 051333Z 26003KT 06/M05 A3013 RMK A01 T00621050  RH  044%=      5-min Rain = 0
KMC4 051334Z 26004KT 06/M05 A3013 RMK A01 T00621051  RH  044%=      5-min Rain = 0
KMC4 051335Z 25004KT 06/M05 A3013 RMK A01 T00621051  RH  044%=      5-min Rain = 0
KMC4 051336Z 25004KT 06/M05 A3013 RMK A01 T00611050  RH  045%=      5-min Rain = 0
KMC4 051337Z 25004KT 06/M05 A3013 RMK A01 T00611049  RH  045%=      5-min Rain = 0
KMC4 051338Z 25003KT 06/M05 A3013 RMK A01 T00611050  RH  045%=      5-min Rain = 0
KMC4 051339Z 25003KT 06/M05 A3013 RMK A01 T00621050  RH  045%=      5-min Rain = 0
KMC4 051340Z 25003KT 06/M05 A3013 RMK A01 T00621050  RH  045%=      5-min Rain = 0
KMC4 051341Z 25003KT 06/M05 A3013 RMK A01 T00611049  RH  045%=      5-min Rain = 0
KMC4 051342Z 25003KT 06/M05 A3013 RMK A01 T00611048  RH  045%=      5-min Rain = 0
KMC4 051343Z 25003KT 06/M05 A3013 RMK A01 T00611048  RH  045%=      5-min Rain = 0
KMC4 051344Z 25003KT 06/M05 A3013 RMK A01 T00621047  RH  046%=      5-min Rain = 0
KMC4 051345Z 24002KT 06/M05 A3013 RMK A01 T00621047  RH  046%=      5-min Rain = 0
KMC4 051346Z 25002KT 06/M05 A3013 RMK A01 T00611047  RH  046%=      5-min Rain = 0
KMC4 051347Z 24002KT 06/M05 A3013 RMK A01 T00621046  RH  046%=      5-min Rain = 0
KMC4 051348Z 24002KT 06/M05 A3013 RMK A01 T00631047  RH  045%=      5-min Rain = 0
KMC4 051349Z 24003KT 06/M05 A3013 RMK A01 T00631047  RH  045%=      5-min Rain = 0
KMC4 051350Z 24003KT 06/M05 A3013 RMK A01 T00631048  RH  045%=      5-min Rain = 0
KMC4 051351Z 24003KT 06/M05 A3013 RMK A01 T00631047  RH  045%=      5-min Rain = 0
KMC4 051352Z 25003KT 06/M05 A3013 RMK A01 T00631047  RH  045%=      5-min Rain = 0
KMC4 051353Z 24003KT 06/M05 A3013 RMK A01 T00631047  RH  045%=      5-min Rain = 0
KMC4 051354Z 25003KT 06/M05 A3014 RMK A01 T00641046  RH  045%=      5-min Rain = 0
KMC4 051355Z 25003KT 06/M05 A3014 RMK A01 T00641047  RH  045%=      5-min Rain = 0
KMC4 051356Z 24003KT 07/M05 A3013 RMK A01 T00651047  RH  045%=      5-min Rain = 0
KMC4 051357Z 24003KT 07/M05 A3013 RMK A01 T00661046  RH  045%=      5-min Rain = 0
KMC4 051358Z 23004KT 07/M05 A3014 RMK A01 T00661045  RH  045%=      5-min Rain = 0
KMC4 051359Z 24004KT 07/M04 A3014 RMK A01 T00661044  RH  045%=      5-min Rain = 0
KMC4 051400Z 24004KT 07/M04 A3014 RMK A01 T00661043  RH  045%=      5-min Rain = 0
KMC4 051401Z 24004KT 07/M04 A3014 RMK A01 T00671043  RH  045%=      5-min Rain = 0
KMC4 051402Z 24005KT 07/M04 A3014 RMK A01 T00671043  RH  045%=      5-min Rain = 0
KMC4 051403Z 24005KT 07/M04 A3014 RMK A01 T00681042  RH  046%=      5-min Rain = 0
KMC4 051404Z 24005KT 07/M04 A3014 RMK A01 T00691040  RH  046%=      5-min Rain = 0
KMC4 051405Z 24004KT 07/M04 A3014 RMK A01 T00691039  RH  046%=      5-min Rain = 0
KMC4 051406Z 24004KT 07/M04 A3014 RMK A01 T00701039  RH  046%=      5-min Rain = 0
KMC4 051407Z 23004KT 07/M04 A3014 RMK A01 T00711038  RH  046%=      5-min Rain = 0
KMC4 051408Z 24004KT 07/M04 A3014 RMK A01 T00721038  RH  046%=      5-min Rain = 0
KMC4 051409Z 24003KT 07/M04 A3014 RMK A01 T00731038  RH  045%=      5-min Rain = 0
KMC4 051410Z 24003KT 07/M04 A3014 RMK A01 T00741039  RH  045%=      5-min Rain = 0
KMC4 051411Z 25003KT 08/M04 A3014 RMK A01 T00751039  RH  044%=      5-min Rain = 0
KMC4 051412Z 25003KT 08/M04 A3014 RMK A01 T00761038  RH  044%=      5-min Rain = 0
KMC4 051413Z 25003KT 08/M04 A3014 RMK A01 T00781038  RH  044%=      5-min Rain = 0
KMC4 051414Z 25004KT 08/M04 A3014 RMK A01 T00781038  RH  044%=      5-min Rain = 0
KMC4 051415Z 25004KT 08/M04 A3014 RMK A01 T00791036  RH  044%=      5-min Rain = 0
KMC4 051416Z 25005KT 08/M04 A3014 RMK A01 T00801037  RH  043%=      5-min Rain = 0
KMC4 051417Z 25004KT 08/M04 A3014 RMK A01 T00811039  RH  042%=      5-min Rain = 0
KMC4 051418Z 24005KT 08/M04 A3014 RMK A01 T00821039  RH  042%=      5-min Rain = 0
KMC4 051419Z 25004KT 08/M04 A3014 RMK A01 T00831040  RH  042%=      5-min Rain = 0
KMC4 051420Z 24004KT 08/M04 A3014 RMK A01 T00831039  RH  042%=      5-min Rain = 0
KMC4 051421Z 24004KT 08/M04 A3015 RMK A01 T00841040  RH  041%=      5-min Rain = 0
KMC4 051422Z 24005KT 08/M04 A3015 RMK A01 T00841040  RH  041%=      5-min Rain = 0
KMC4 051423Z 24004KT 09/M04 A3015 RMK A01 T00851040  RH  041%=      5-min Rain = 0
KMC4 051424Z 24004KT 09/M04 A3015 RMK A01 T00851040  RH  041%=      5-min Rain = 0
KMC4 051425Z 24004KT 09/M04 A3015 RMK A01 T00851040  RH  041%=      5-min Rain = 0
KMC4 051426Z 24004KT 09/M04 A3015 RMK A01 T00861040  RH  041%=      5-min Rain = 0
KMC4 051427Z 24004KT 09/M04 A3015 RMK A01 T00861039  RH  041%=      5-min Rain = 0
KMC4 051428Z 24004KT 09/M04 A3015 RMK A01 T00871040  RH  041%=      5-min Rain = 0
KMC4 051429Z 24004KT 09/M04 A3015 RMK A01 T00871040  RH  040%=      5-min Rain = 0
KMC4 051430Z 24003KT 09/M04 A3015 RMK A01 T00881039  RH  041%=      5-min Rain = 0
KMC4 051431Z 24004KT 09/M04 A3015 RMK A01 T00881040  RH  040%=      5-min Rain = 0
KMC4 051432Z 24003KT 09/M04 A3015 RMK A01 T00881039  RH  040%=      5-min Rain = 0
KMC4 051433Z 24004KT 09/M04 A3015 RMK A01 T00891038  RH  041%=      5-min Rain = 0
KMC4 051434Z 25004KT 09/M04 A3015 RMK A01 T00891038  RH  041%=      5-min Rain = 0
KMC4 051435Z 25004KT 09/M04 A3015 RMK A01 T00891039  RH  040%=      5-min Rain = 0
KMC4 051436Z 24005KT 09/M04 A3015 RMK A01 T00891038  RH  040%=      5-min Rain = 0
KMC4 051437Z 24004KT 09/M04 A3015 RMK A01 T00891039  RH  040%=      5-min Rain = 0
KMC4 051438Z 24004KT 09/M04 A3015 RMK A01 T00891039  RH  040%=      5-min Rain = 0
KMC4 051439Z 25005KT 09/M04 A3015 RMK A01 T00891038  RH  040%=      5-min Rain = 0
KMC4 051440Z 24004KT 09/M04 A3016 RMK A01 T00891038  RH  041%=      5-min Rain = 0
KMC4 051441Z 24005KT 09/M04 A3016 RMK A01 T00891038  RH  040%=      5-min Rain = 0
KMC4 051442Z 25005KT 09/M04 A3016 RMK A01 T00901038  RH  040%=      5-min Rain = 0
KMC4 051443Z 24004KT 09/M04 A3016 RMK A01 T00901038  RH  041%=      5-min Rain = 0
KMC4 051444Z 26004KT 09/M04 A3016 RMK A01 T00891037  RH  041%=      5-min Rain = 0
KMC4 051445Z 25004KT 09/M04 A3016 RMK A01 T00901036  RH  041%=      5-min Rain = 0
KMC4 051446Z 26004KT 09/M04 A3016 RMK A01 T00901036  RH  041%=      5-min Rain = 0
KMC4 051447Z 26004KT 09/M04 A3016 RMK A01 T00901036  RH  041%=      5-min Rain = 0
KMC4 051448Z 26003KT 09/M04 A3016 RMK A01 T00901036  RH  041%=      5-min Rain = 0
KMC4 051449Z 26004KT 09/M04 A3016 RMK A01 T00911035  RH  041%=      5-min Rain = 0
KMC4 051450Z 25004KT 09/M04 A3016 RMK A01 T00911035  RH  041%=      5-min Rain = 0
KMC4 051451Z 26004KT 09/M04 A3016 RMK A01 T00921035  RH  041%=      5-min Rain = 0
KMC4 051452Z 26004KT 09/M03 A3016 RMK A01 T00931034  RH  041%=      5-min Rain = 0
KMC4 051453Z 25004KT 09/M03 A3016 RMK A01 T00931034  RH  041%=      5-min Rain = 0
KMC4 051454Z 27004KT 09/M04 A3016 RMK A01 T00941035  RH  040%=      5-min Rain = 0
KMC4 051455Z 27004KT 09/M03 A3016 RMK A01 T00941034  RH  040%=      5-min Rain = 0
KMC4 051456Z 27005KT 09/M04 A3017 RMK A01 T00941035  RH  040%=      5-min Rain = 0
KMC4 051457Z 27005KT 10/M04 A3017 RMK A01 T00951036  RH  040%=      5-min Rain = 0
KMC4 051458Z 26004KT 10/M03 A3017 RMK A01 T00961034  RH  040%=      5-min Rain = 0
KMC4 051459Z 27005KT 10/M03 A3017 RMK A01 T00971034  RH  039%=      5-min Rain = 0
KMC4 051500Z 28005KT 10/M03 A3017 RMK A01 T00981034  RH  039%=      5-min Rain = 0
KMC4 051501Z 27005KT 10/M04 A3017 RMK A01 T00991035  RH  039%=      5-min Rain = 0
KMC4 051502Z 27006KT 10/M03 A3017 RMK A01 T00991033  RH  039%=      5-min Rain = 0
KMC4 051503Z 27006KT 10/M03 A3017 RMK A01 T01011033  RH  039%=      5-min Rain = 0
KMC4 051504Z 27006KT 10/M03 A3017 RMK A01 T01011033  RH  039%=      5-min Rain = 0
KMC4 051505Z 28007KT 10/M03 A3017 RMK A01 T01021033  RH  039%=      5-min Rain = 0
KMC4 051506Z 29007KT 10/M03 A3017 RMK A01 T01031034  RH  038%=      5-min Rain = 0
KMC4 051507Z 28006KT 10/M03 A3017 RMK A01 T01031034  RH  038%=      5-min Rain = 0
KMC4 051508Z 27008KT 10/M03 A3017 RMK A01 T01041032  RH  038%=      5-min Rain = 0
KMC4 051509Z 28007KT 11/M03 A3017 RMK A01 T01051033  RH  038%=      5-min Rain = 0
KMC4 051510Z 27006KT 11/M03 A3017 RMK A01 T01061033  RH  037%=      5-min Rain = 0
KMC4 051511Z 26005KT 11/M03 A3017 RMK A01 T01071032  RH  038%=      5-min Rain = 0
KMC4 051512Z 27006KT 11/M03 A3017 RMK A01 T01091031  RH  037%=      5-min Rain = 0
KMC4 051513Z 26006KT 11/M03 A3017 RMK A01 T01101031  RH  037%=      5-min Rain = 0
KMC4 051514Z 25007KT 11/M03 A3017 RMK A01 T01111031  RH  037%=      5-min Rain = 0
KMC4 051515Z 26007KT 11/M03 A3017 RMK A01 T01131030  RH  037%=      5-min Rain = 0
KMC4 051516Z 28007KT 11/M03 A3017 RMK A01 T01131031  RH  036%=      5-min Rain = 0
KMC4 051517Z 27006KT 11/M03 A3017 RMK A01 T01141029  RH  037%=      5-min Rain = 0
KMC4 051518Z 27007KT 12/M03 A3017 RMK A01 T01151029  RH  037%=      5-min Rain = 0
KMC4 051519Z 27007KT 12/M03 A3017 RMK A01 T01161030  RH  036%=      5-min Rain = 0
KMC4 051520Z 25007KT 12/M03 A3017 RMK A01 T01161030  RH  036%=      5-min Rain = 0
KMC4 051521Z 26007KT 12/M03 A3017 RMK A01 T01161029  RH  036%=      5-min Rain = 0
KMC4 051522Z 27007KT 12/M03 A3017 RMK A01 T01171029  RH  036%=      5-min Rain = 0
KMC4 051523Z 28007KT 12/M03 A3017 RMK A01 T01181028  RH  036%=      5-min Rain = 0
KMC4 051524Z 27007KT 12/M03 A3017 RMK A01 T01211026  RH  036%=      5-min Rain = 0
KMC4 051525Z 27008KT 12/M03 A3017 RMK A01 T01231025  RH  036%=      5-min Rain = 0
KMC4 051526Z 27007KT 12/M02 A3017 RMK A01 T01241024  RH  036%=      5-min Rain = 0
KMC4 051527Z 28007KT 13/M02 A3017 RMK A01 T01251024  RH  035%=      5-min Rain = 0
KMC4 051528Z 28006KT 13/M03 A3017 RMK A01 T01261025  RH  035%=      5-min Rain = 0
KMC4 051529Z 29007KT 13/M02 A3017 RMK A01 T01271023  RH  035%=      5-min Rain = 0
KMC4 051530Z 30010KT 13/M02 A3017 RMK A01 T01311021  RH  035%=      5-min Rain = 0
KMC4 051531Z 29010KT 13/M02 A3017 RMK A01 T01331021  RH  034%=      5-min Rain = 0
KMC4 051532Z 30007KT 13/M02 A3017 RMK A01 T01341021  RH  034%=      5-min Rain = 0
KMC4 051533Z 30008KT 14/M02 A3017 RMK A01 T01351020  RH  034%=      5-min Rain = 0
KMC4 051534Z 30007KT 14/M02 A3017 RMK A01 T01381018  RH  034%=      5-min Rain = 0
KMC4 051535Z 30006KT 14/M02 A3017 RMK A01 T01391017  RH  034%=      5-min Rain = 0
KMC4 051536Z 30006KT 14/M02 A3017 RMK A01 T01411016  RH  034%=      5-min Rain = 0
KMC4 051537Z 32009G17KT 14/M02 A3017 RMK A01 T01421015  RH  034%=      5-min Rain = 0
KMC4 051538Z 31015KT 14/M01 A3017 RMK A01 T01431009  RH  035%=      5-min Rain = 0
KMC4 051539Z 33015G20KT 15/M01 A3017 RMK A01 T01451005  RH  036%=      5-min Rain = 0
KMC4 051540Z 32013KT 15/M00 A3017 RMK A01 T01471004  RH  036%=      5-min Rain = 0
KMC4 051541Z 32016KT 15/M00 A3017 RMK A01 T01491002  RH  036%=      5-min Rain = 0
KMC4 051542Z 33015KT 15/M00 A3017 RMK A01 T01491003  RH  035%=      5-min Rain = 0
KMC4 051543Z 33011KT 15/M00 A3017 RMK A01 T01501002  RH  035%=      5-min Rain = 0
KMC4 051544Z 32016KT 15/M00 A3017 RMK A01 T01511002  RH  035%=      5-min Rain = 0
KMC4 051545Z 32016KT 15/M00 A3017 RMK A01 T01511003  RH  035%=      5-min Rain = 0
KMC4 051546Z 33013KT 15/M00 A3017 RMK A01 T01501003  RH  035%=      5-min Rain = 0
KMC4 051547Z 33011KT 15/M00 A3017 RMK A01 T01501002  RH  035%=      5-min Rain = 0
KMC4 051548Z 32017KT 15/M00 A3017 RMK A01 T01511003  RH  035%=      5-min Rain = 0
KMC4 051549Z 32013KT 15/M00 A3017 RMK A01 T01521003  RH  035%=      5-min Rain = 0
KMC4 051550Z 33016KT 15/M00 A3017 RMK A01 T01531003  RH  034%=      5-min Rain = 0
KMC4 051551Z 34014KT 15/M00 A3017 RMK A01 T01531004  RH  034%=      5-min Rain = 0
KMC4 051552Z 32013KT 15/M00 A3017 RMK A01 T01541002  RH  035%=      5-min Rain = 0
KMC4 051553Z 32013KT 16/M00 A3017 RMK A01 T01551002  RH  034%=      5-min Rain = 0
KMC4 051554Z 32014KT 16/M00 A3017 RMK A01 T01561002  RH  034%=      5-min Rain = 0
KMC4 051555Z 32014KT 16/M00 A3017 RMK A01 T01571001  RH  034%=      5-min Rain = 0
KMC4 051556Z 32013KT 16/00 A3017 RMK A01 T015700-0  RH  034%=      5-min Rain = 0
KMC4 051557Z 32016KT 16/00 A3017 RMK A01 T015700-0  RH  034%=      5-min Rain = 0
KMC4 051558Z 32015KT 16/00 A3017 RMK A01 T015600-0  RH  034%=      5-min Rain = 0
KMC4 051559Z 32016KT 16/00 A3017 RMK A01 T015600-0  RH  034%=      5-min Rain = 0
KMC4 051600Z 32014KT 16/M00 A3017 RMK A01 T01561001  RH  034%=      5-min Rain = 0
KMC4 051601Z 31016KT 16/00 A3017 RMK A01 T015600-0  RH  034%=      5-min Rain = 0
KMC4 051602Z 32015KT 16/00 A3017 RMK A01 T015700-0  RH  034%=      5-min Rain = 0
KMC4 051603Z 32017KT 16/M00 A3017 RMK A01 T01571001  RH  034%=      5-min Rain = 0
KMC4 051604Z 32015KT 16/00 A3017 RMK A01 T01570000  RH  034%=      5-min Rain = 0
KMC4 051605Z 33011KT 16/00 A3017 RMK A01 T01580002  RH  035%=      5-min Rain = 0
KMC4 051606Z 34010KT 16/00 A3017 RMK A01 T01590002  RH  034%=      5-min Rain = 0
KMC4 051607Z 34014KT 16/00 A3017 RMK A01 T01590000  RH  034%=      5-min Rain = 0
KMC4 051608Z 33012KT 16/00 A3017 RMK A01 T015800-0  RH  034%=      5-min Rain = 0
KMC4 051609Z 33009KT 16/00 A3017 RMK A01 T01580001  RH  034%=      5-min Rain = 0
KMC4 051610Z 33010KT 16/00 A3017 RMK A01 T01590002  RH  034%=      5-min Rain = 0
KMC4 051611Z 31009KT 16/00 A3017 RMK A01 T01600002  RH  034%=      5-min Rain = 0
KMC4 051612Z 32013KT 16/00 A3017 RMK A01 T01620003  RH  034%=      5-min Rain = 0
KMC4 051613Z 33016KT 16/00 A3017 RMK A01 T01620003  RH  034%=      5-min Rain = 0
KMC4 051614Z 33015KT 16/00 A3017 RMK A01 T01610003  RH  034%=      5-min Rain = 0
KMC4 051615Z 34016KT 16/00 A3017 RMK A01 T01610002  RH  034%=      5-min Rain = 0
KMC4 051616Z 32014KT 16/00 A3017 RMK A01 T01590003  RH  035%=      5-min Rain = 0
KMC4 051617Z 33013KT 16/00 A3017 RMK A01 T01590004  RH  035%=      5-min Rain = 0
KMC4 051618Z 34013G18KT 16/00 A3017 RMK A01 T01600004  RH  035%=      5-min Rain = 0
KMC4 051619Z 33015KT 16/00 A3017 RMK A01 T01610004  RH  034%=      5-min Rain = 0
KMC4 051620Z 33013KT 16/01 A3017 RMK A01 T01620005  RH  035%=      5-min Rain = 0
KMC4 051621Z 34014G19KT 16/01 A3017 RMK A01 T01630005  RH  034%=      5-min Rain = 0
KMC4 051622Z 33017G22KT 16/01 A3017 RMK A01 T01640006  RH  034%=      5-min Rain = 0
KMC4 051623Z 32011KT 16/01 A3017 RMK A01 T01640006  RH  034%=      5-min Rain = 0
KMC4 051624Z 33011KT 17/01 A3017 RMK A01 T01660007  RH  034%=      5-min Rain = 0
KMC4 051625Z 35016KT 17/01 A3017 RMK A01 T01670006  RH  034%=      5-min Rain = 0
KMC4 051626Z 33012KT 17/01 A3017 RMK A01 T01650006  RH  034%=      5-min Rain = 0
KMC4 051627Z 33016G21KT 17/01 A3017 RMK A01 T01660007  RH  034%=      5-min Rain = 0
KMC4 051628Z 33014KT 17/01 A3017 RMK A01 T01670008  RH  034%=      5-min Rain = 0
KMC4 051629Z 33014KT 17/01 A3017 RMK A01 T01670008  RH  034%=      5-min Rain = 0
KMC4 051630Z 34017KT 17/01 A3017 RMK A01 T01670006  RH  034%=      5-min Rain = 0
KMC4 051631Z 33014KT 17/01 A3017 RMK A01 T01650006  RH  034%=      5-min Rain = 0
KMC4 051632Z 31014KT 17/01 A3017 RMK A01 T01650007  RH  034%=      5-min Rain = 0
KMC4 051633Z 32012KT 17/01 A3017 RMK A01 T01650006  RH  034%=      5-min Rain = 0
KMC4 051634Z 33011KT 17/01 A3017 RMK A01 T01660008  RH  034%=      5-min Rain = 0
KMC4 051635Z 33015G22KT 17/01 A3017 RMK A01 T01680010  RH  034%=      5-min Rain = 0
KMC4 051636Z 33017KT 17/01 A3017 RMK A01 T01700010  RH  034%=      5-min Rain = 0
KMC4 051637Z 33014KT 17/01 A3017 RMK A01 T01690011  RH  034%=      5-min Rain = 0
KMC4 051638Z 33015KT 17/01 A3017 RMK A01 T01680011  RH  035%=      5-min Rain = 0
KMC4 051639Z 33015KT 17/01 A3017 RMK A01 T01670010  RH  035%=      5-min Rain = 0
KMC4 051640Z 33011KT 17/01 A3017 RMK A01 T01670010  RH  035%=      5-min Rain = 0
KMC4 051641Z 33013KT 17/01 A3017 RMK A01 T01670011  RH  035%=      5-min Rain = 0
KMC4 051642Z 33016KT 17/01 A3017 RMK A01 T01690013  RH  035%=      5-min Rain = 0
KMC4 051643Z 33018KT 17/01 A3017 RMK A01 T01710012  RH  034%=      5-min Rain = 0
KMC4 051644Z 33015KT 17/01 A3017 RMK A01 T01700012  RH  035%=      5-min Rain = 0
KMC4 051645Z 34013G19KT 17/01 A3017 RMK A01 T01700013  RH  035%=      5-min Rain = 0
KMC4 051646Z 32016KT 17/01 A3017 RMK A01 T01710013  RH  034%=      5-min Rain = 0
KMC4 051647Z 32016KT 17/01 A3017 RMK A01 T01700013  RH  034%=      5-min Rain = 0
KMC4 051648Z 31013KT 17/01 A3017 RMK A01 T01700013  RH  035%=      5-min Rain = 0
KMC4 051649Z 32012KT 17/01 A3017 RMK A01 T01710014  RH  035%=      5-min Rain = 0
KMC4 051650Z 32012G17KT 17/02 A3017 RMK A01 T01720015  RH  035%=      5-min Rain = 0
KMC4 051651Z 32012KT 17/02 A3017 RMK A01 T01740015  RH  034%=      5-min Rain = 0
KMC4 051652Z 33014KT 17/01 A3017 RMK A01 T01740014  RH  034%=      5-min Rain = 0
KMC4 051653Z 33012KT 17/01 A3017 RMK A01 T01730014  RH  034%=      5-min Rain = 0
KMC4 051654Z 32014KT 17/02 A3017 RMK A01 T01740016  RH  034%=      5-min Rain = 0
KMC4 051655Z 33013G18KT 18/02 A3017 RMK A01 T01760015  RH  034%=      5-min Rain = 0
KMC4 051656Z 31014KT 18/01 A3017 RMK A01 T01750014  RH  034%=      5-min Rain = 0
KMC4 051657Z 31013G19KT 17/01 A3017 RMK A01 T01740014  RH  034%=      5-min Rain = 0
KMC4 051658Z 31016KT 18/01 A3017 RMK A01 T01750013  RH  034%=      5-min Rain = 0
KMC4 051659Z 31014KT 18/01 A3017 RMK A01 T01750013  RH  034%=      5-min Rain = 0
KMC4 051700Z 31017KT 18/01 A3017 RMK A01 T01750012  RH  033%=      5-min Rain = 0
KMC4 051701Z 31015KT 18/01 A3017 RMK A01 T01750013  RH  033%=      5-min Rain = 0
KMC4 051702Z 32018G23KT 18/01 A3017 RMK A01 T01770013  RH  033%=      5-min Rain = 0
KMC4 051703Z 32017G22KT 18/01 A3017 RMK A01 T01770012  RH  033%=      5-min Rain = 0
KMC4 051704Z 32018KT 18/01 A3017 RMK A01 T01760012  RH  033%=      5-min Rain = 0
KMC4 051705Z 31018KT 18/01 A3017 RMK A01 T01750011  RH  033%=      5-min Rain = 0
KMC4 051706Z 31018KT 17/01 A3017 RMK A01 T01740010  RH  033%=      5-min Rain = 0
KMC4 051707Z 31016G23KT 17/01 A3017 RMK A01 T01740010  RH  033%=      5-min Rain = 0
KMC4 051708Z 33012KT 18/01 A3017 RMK A01 T01760012  RH  033%=      5-min Rain = 0
KMC4 051709Z 33013KT 18/01 A3017 RMK A01 T01790013  RH  033%=      5-min Rain = 0
KMC4 051710Z 33010G15KT 18/01 A3017 RMK A01 T01790013  RH  033%=      5-min Rain = 0
KMC4 051711Z 33016KT 18/01 A3017 RMK A01 T01790013  RH  033%=      5-min Rain = 0
KMC4 051712Z 32012G17KT 18/01 A3017 RMK A01 T01790013  RH  033%=      5-min Rain = 0
KMC4 051713Z 33013G18KT 18/01 A3017 RMK A01 T01790013  RH  033%=      5-min Rain = 0
KMC4 051714Z 31014KT 18/01 A3017 RMK A01 T01800014  RH  033%=      5-min Rain = 0
KMC4 051715Z 34011G16KT 18/01 A3017 RMK A01 T01820014  RH  032%=      5-min Rain = 0
KMC4 051716Z 34014G19KT 18/01 A3017 RMK A01 T01820012  RH  032%=      5-min Rain = 0
KMC4 051717Z 35016G21KT 18/01 A3017 RMK A01 T01800010  RH  032%=      5-min Rain = 0
KMC4 051718Z 35015KT 18/01 A3017 RMK A01 T01770009  RH  032%=      5-min Rain = 0
KMC4 051719Z 35017G22KT 18/01 A3017 RMK A01 T01750010  RH  033%=      5-min Rain = 0
KMC4 051720Z 35017KT 18/01 A3017 RMK A01 T01750010  RH  033%=      5-min Rain = 0
KMC4 051721Z 33018KT 18/01 A3017 RMK A01 T01750011  RH  033%=      5-min Rain = 0
KMC4 051722Z 32017KT 18/01 A3017 RMK A01 T01770012  RH  033%=      5-min Rain = 0
KMC4 051723Z 32016KT 18/01 A3017 RMK A01 T01780012  RH  033%=      5-min Rain = 0
KMC4 051724Z 32014G19KT 18/01 A3017 RMK A01 T01790013  RH  033%=      5-min Rain = 0
KMC4 051725Z 33014G19KT 18/01 A3017 RMK A01 T01790013  RH  033%=      5-min Rain = 0
KMC4 051726Z 32015KT 18/01 A3017 RMK A01 T01800014  RH  033%=      5-min Rain = 0
KMC4 051727Z 32014KT 18/02 A3017 RMK A01 T01800015  RH  033%=      5-min Rain = 0
KMC4 051728Z 32014KT 18/02 A3017 RMK A01 T01800016  RH  033%=      5-min Rain = 0
KMC4 051729Z 32014KT 18/02 A3017 RMK A01 T01820016  RH  033%=      5-min Rain = 0
KMC4 051730Z 31013KT 18/02 A3017 RMK A01 T01830016  RH  033%=      5-min Rain = 0
KMC4 051731Z 33016KT 18/02 A3017 RMK A01 T01840016  RH  032%=      5-min Rain = 0
KMC4 051732Z 32015KT 18/02 A3017 RMK A01 T01830015  RH  032%=      5-min Rain = 0
KMC4 051733Z 33013KT 18/02 A3017 RMK A01 T01810016  RH  033%=      5-min Rain = 0
KMC4 051734Z 32015KT 18/02 A3017 RMK A01 T01820017  RH  033%=      5-min Rain = 0
KMC4 051735Z 32014KT 18/02 A3017 RMK A01 T01810017  RH  033%=      5-min Rain = 0
KMC4 051736Z 33019KT 18/02 A3017 RMK A01 T01810017  RH  033%=      5-min Rain = 0
KMC4 051737Z 33018KT 18/02 A3017 RMK A01 T01800017  RH  033%=      5-min Rain = 0
KMC4 051738Z 33015KT 18/02 A3017 RMK A01 T01800017  RH  033%=      5-min Rain = 0
KMC4 051739Z 34017G24KT 18/02 A3017 RMK A01 T01800017  RH  033%=      5-min Rain = 0
KMC4 051740Z 33018G23KT 18/02 A3018 RMK A01 T01800016  RH  033%=      5-min Rain = 0
KMC4 051741Z 33018G24KT 18/02 A3017 RMK A01 T01810017  RH  033%=      5-min Rain = 0
KMC4 051742Z 32017KT 18/02 A3017 RMK A01 T01810018  RH  033%=      5-min Rain = 0
KMC4 051743Z 32017KT 18/02 A3017 RMK A01 T01810018  RH  034%=      5-min Rain = 0
KMC4 051744Z 32016KT 18/02 A3017 RMK A01 T01800017  RH  034%=      5-min Rain = 0
KMC4 051745Z 33017KT 18/02 A3017 RMK A01 T01800018  RH  034%=      5-min Rain = 0
KMC4 051746Z 32020G25KT 18/02 A3017 RMK A01 T01800016  RH  033%=      5-min Rain = 0
KMC4 051747Z 32019KT 18/02 A3017 RMK A01 T01790017  RH  034%=      5-min Rain = 0
KMC4 051748Z 34011KT 18/02 A3017 RMK A01 T01790018  RH  034%=      5-min Rain = 0
KMC4 051749Z 34012KT 18/02 A3017 RMK A01 T01810019  RH  034%=      5-min Rain = 0
KMC4 051750Z 32016KT 18/02 A3017 RMK A01 T01810018  RH  033%=      5-min Rain = 0
KMC4 051751Z 33014G20KT 18/02 A3017 RMK A01 T01820018  RH  033%=      5-min Rain = 0
KMC4 051752Z 32014G21KT 18/02 A3017 RMK A01 T01830019  RH  033%=      5-min Rain = 0
KMC4 051753Z 32014KT 19/02 A3017 RMK A01 T01850019  RH  033%=      5-min Rain = 0
KMC4 051754Z 32019G25KT 19/02 A3017 RMK A01 T01860020  RH  033%=      5-min Rain = 0
KMC4 051755Z 32019KT 19/02 A3017 RMK A01 T01870018  RH  032%=      5-min Rain = 0
KMC4 051756Z 33018KT 18/02 A3017 RMK A01 T01840017  RH  033%=      5-min Rain = 0
KMC4 051757Z 33018KT 18/02 A3017 RMK A01 T01820019  RH  033%=      5-min Rain = 0
KMC4 051758Z 34018KT 18/02 A3017 RMK A01 T01830019  RH  033%=      5-min Rain = 0
KMC4 051759Z 34018KT 18/02 A3017 RMK A01 T01810019  RH  034%=      5-min Rain = 0
KMC4 051800Z 35015KT 18/02 A3017 RMK A01 T01790019  RH  034%=      5-min Rain = 0
KMC4 051801Z 33017KT 18/02 A3017 RMK A01 T01790019  RH  034%=      5-min Rain = 0
KMC4 051802Z 34020G26KT 18/02 A3017 RMK A01 T01810021  RH  034%=      5-min Rain = 0
KMC4 051803Z 33016KT 18/02 A3017 RMK A01 T01820021  RH  034%=      5-min Rain = 0
KMC4 051804Z 33018KT 18/02 A3017 RMK A01 T01840023  RH  034%=      5-min Rain = 0
KMC4 051805Z 33018G23KT 19/02 A3017 RMK A01 T01860024  RH  034%=      5-min Rain = 0
KMC4 051806Z 33016KT 19/02 A3017 RMK A01 T01850023  RH  034%=      5-min Rain = 0
KMC4 051807Z 33016G22KT 18/02 A3017 RMK A01 T01840022  RH  034%=      5-min Rain = 0
KMC4 051808Z 33019KT 18/02 A3017 RMK A01 T01830023  RH  034%=      5-min Rain = 0
KMC4 051809Z 33019KT 18/02 A3017 RMK A01 T01840024  RH  034%=      5-min Rain = 0
KMC4 051810Z 33017KT 19/02 A3017 RMK A01 T01850024  RH  034%=      5-min Rain = 0
KMC4 051811Z 33018G24KT 19/03 A3017 RMK A01 T01850025  RH  034%=      5-min Rain = 0
KMC4 051812Z 33018KT 19/03 A3017 RMK A01 T01860025  RH  034%=      5-min Rain = 0
KMC4 051813Z 33016G22KT 19/02 A3017 RMK A01 T01850024  RH  034%=      5-min Rain = 0
KMC4 051814Z 33017G23KT 18/03 A3017 RMK A01 T01840025  RH  035%=      5-min Rain = 0
KMC4 051815Z 35019KT 19/03 A3017 RMK A01 T01850025  RH  034%=      5-min Rain = 0
KMC4 051816Z 35018G23KT 18/02 A3017 RMK A01 T01840022  RH  034%=      5-min Rain = 0
KMC4 051817Z 35016G21KT 18/02 A3017 RMK A01 T01830022  RH  034%=      5-min Rain = 0
KMC4 051818Z 35016KT 18/02 A3017 RMK A01 T01820022  RH  034%=      5-min Rain = 0
KMC4 051819Z 34016KT 18/02 A3017 RMK A01 T01830023  RH  034%=      5-min Rain = 0
KMC4 051820Z 34013KT 18/02 A3017 RMK A01 T01840024  RH  034%=      5-min Rain = 0
KMC4 051821Z 35020G26KT 19/02 A3017 RMK A01 T01850023  RH  034%=      5-min Rain = 0
KMC4 051822Z 00020KT 18/02 A3016 RMK A01 T01830022  RH  034%=      5-min Rain = 0
KMC4 051823Z 00015KT 18/02 A3017 RMK A01 T01810023  RH  035%=      5-min Rain = 0
KMC4 051824Z 34013KT 18/03 A3017 RMK A01 T01820025  RH  035%=      5-min Rain = 0
KMC4 051825Z 34015KT 19/03 A3017 RMK A01 T01850026  RH  035%=      5-min Rain = 0
KMC4 051826Z 35014G21KT 19/03 A3017 RMK A01 T01860025  RH  034%=      5-min Rain = 0
KMC4 051827Z 35016KT 19/03 A3017 RMK A01 T01860026  RH  034%=      5-min Rain = 0
KMC4 051828Z 34012KT 18/03 A3017 RMK A01 T01840027  RH  035%=      5-min Rain = 0
KMC4 051829Z 33011KT 19/03 A3017 RMK A01 T01850028  RH  035%=      5-min Rain = 0
KMC4 051830Z 32017G23KT 19/03 A3017 RMK A01 T01870029  RH  035%=      5-min Rain = 0
KMC4 051831Z 33020KT 19/03 A3017 RMK A01 T01880027  RH  034%=      5-min Rain = 0
KMC4 051832Z 32018G24KT 19/03 A3017 RMK A01 T01850027  RH  035%=      5-min Rain = 0
KMC4 051833Z 32018KT 18/03 A3017 RMK A01 T01840029  RH  035%=      5-min Rain = 0
KMC4 051834Z 31015KT 19/03 A3017 RMK A01 T01860029  RH  035%=      5-min Rain = 0
KMC4 051835Z 32012KT 19/03 A3016 RMK A01 T01870031  RH  036%=      5-min Rain = 0
KMC4 051836Z 34017G23KT 19/03 A3017 RMK A01 T01900033  RH  035%=      5-min Rain = 0
KMC4 051837Z 33021G27KT 19/03 A3017 RMK A01 T01910033  RH  035%=      5-min Rain = 0
KMC4 051838Z 33021G28KT 19/03 A3017 RMK A01 T01890032  RH  035%=      5-min Rain = 0
KMC4 051839Z 33019KT 19/03 A3017 RMK A01 T01870033  RH  036%=      5-min Rain = 0
KMC4 051840Z 33023G28KT 19/03 A3017 RMK A01 T01870031  RH  036%=      5-min Rain = 0
KMC4 051841Z 33021KT 19/03 A3017 RMK A01 T01850032  RH  036%=      5-min Rain = 0
KMC4 051842Z 33017KT 19/03 A3017 RMK A01 T01850033  RH  036%=      5-min Rain = 0
KMC4 051843Z 33014G19KT 19/03 A3017 RMK A01 T01860034  RH  036%=      5-min Rain = 0
KMC4 051844Z 33017G22KT 19/04 A3017 RMK A01 T01890035  RH  036%=      5-min Rain = 0
KMC4 051845Z 33021KT 19/03 A3017 RMK A01 T01910034  RH  035%=      5-min Rain = 0
KMC4 051846Z 33017KT 19/03 A3017 RMK A01 T01890031  RH  035%=      5-min Rain = 0
KMC4 051847Z 33015KT 19/03 A3017 RMK A01 T01870033  RH  036%=      5-min Rain = 0
KMC4 051848Z 00013G18KT 19/04 A3017 RMK A01 T01870036  RH  037%=      5-min Rain = 0
KMC4 051849Z 35015KT 19/04 A3017 RMK A01 T01880035  RH  036%=      5-min Rain = 0
KMC4 051850Z 34014G19KT 19/04 A3017 RMK A01 T01870035  RH  036%=      5-min Rain = 0
KMC4 051851Z 34019KT 19/03 A3017 RMK A01 T01850033  RH  036%=      5-min Rain = 0
KMC4 051852Z 33015KT 19/03 A3017 RMK A01 T01860034  RH  036%=      5-min Rain = 0
KMC4 051853Z 32020G27KT 19/04 A3017 RMK A01 T01900035  RH  036%=      5-min Rain = 0
KMC4 051854Z 33017G22KT 19/04 A3016 RMK A01 T01920035  RH  035%=      5-min Rain = 0
KMC4 051855Z 33018KT 19/03 A3017 RMK A01 T01910034  RH  035%=      5-min Rain = 0
KMC4 051856Z 34016G21KT 19/04 A3017 RMK A01 T01900035  RH  036%=      5-min Rain = 0
KMC4 051857Z 33017KT 19/03 A3017 RMK A01 T01900033  RH  035%=      5-min Rain = 0
KMC4 051858Z 33018KT 19/03 A3017 RMK A01 T01890034  RH  036%=      5-min Rain = 0
KMC4 051859Z 33015KT 19/03 A3016 RMK A01 T01880033  RH  036%=      5-min Rain = 0
KMC4 051900Z 33016KT 19/03 A3016 RMK A01 T01880033  RH  036%=      5-min Rain = 0
KMC4 051901Z 33016G23KT 19/04 A3016 RMK A01 T01900035  RH  036%=      5-min Rain = 0
KMC4 051902Z 34017G22KT 19/03 A3016 RMK A01 T01910034  RH  035%=      5-min Rain = 0
KMC4 051903Z 33016G22KT 19/03 A3016 RMK A01 T01910033  RH  035%=      5-min Rain = 0
KMC4 051904Z 33018KT 19/03 A3016 RMK A01 T01910033  RH  035%=      5-min Rain = 0
KMC4 051905Z 32019G25KT 19/03 A3016 RMK A01 T01910033  RH  035%=      5-min Rain = 0
KMC4 051906Z 33018KT 19/03 A3016 RMK A01 T01900032  RH  035%=      5-min Rain = 0
KMC4 051907Z 33016KT 19/03 A3016 RMK A01 T01900034  RH  035%=      5-min Rain = 0
KMC4 051908Z 32020KT 19/03 A3016 RMK A01 T01890033  RH  036%=      5-min Rain = 0
KMC4 051909Z 33022KT 19/04 A3016 RMK A01 T01900035  RH  036%=      5-min Rain = 0
KMC4 051910Z 32019KT 19/04 A3016 RMK A01 T01910035  RH  035%=      5-min Rain = 0
KMC4 051911Z 33013KT 19/04 A3016 RMK A01 T01920036  RH  035%=      5-min Rain = 0
KMC4 051912Z 34015KT 19/03 A3016 RMK A01 T01930034  RH  035%=      5-min Rain = 0
KMC4 051913Z 35016G21KT 19/03 A3016 RMK A01 T01910032  RH  035%=      5-min Rain = 0
KMC4 051914Z 35016KT 19/03 A3016 RMK A01 T01890032  RH  035%=      5-min Rain = 0
KMC4 051915Z 35019KT 19/03 A3016 RMK A01 T01890032  RH  035%=      5-min Rain = 0
KMC4 051916Z 35019KT 19/03 A3016 RMK A01 T01890032  RH  035%=      5-min Rain = 0
KMC4 051917Z 33015KT 19/03 A3016 RMK A01 T01890032  RH  035%=      5-min Rain = 0
KMC4 051918Z 33013G18KT 19/03 A3016 RMK A01 T01900034  RH  035%=      5-min Rain = 0
KMC4 051919Z 33012KT 19/04 A3015 RMK A01 T01920036  RH  035%=      5-min Rain = 0
KMC4 051920Z 35017G25KT 20/04 A3015 RMK A01 T01960036  RH  035%=      5-min Rain = 0
KMC4 051921Z 35016G22KT 20/03 A3016 RMK A01 T01960033  RH  034%=      5-min Rain = 0
KMC4 051922Z 34019KT 19/03 A3016 RMK A01 T01930032  RH  034%=      5-min Rain = 0
KMC4 051923Z 00017KT 19/03 A3015 RMK A01 T01900031  RH  035%=      5-min Rain = 0
KMC4 051924Z 35017G23KT 19/03 A3015 RMK A01 T01890031  RH  035%=      5-min Rain = 0
KMC4 051925Z 36019KT 19/03 A3015 RMK A01 T01890031  RH  035%=      5-min Rain = 0
KMC4 051926Z 00015KT 19/03 A3015 RMK A01 T01890031  RH  035%=      5-min Rain = 0
KMC4 051927Z 35018KT 19/03 A3015 RMK A01 T01900032  RH  035%=      5-min Rain = 0
KMC4 051928Z 34017G22KT 19/03 A3015 RMK A01 T01910032  RH  035%=      5-min Rain = 0
KMC4 051929Z 00016G21KT 19/03 A3015 RMK A01 T01920034  RH  035%=      5-min Rain = 0
KMC4 051930Z 35018G23KT 19/03 A3015 RMK A01 T01920034  RH  035%=      5-min Rain = 0
KMC4 051931Z 33020KT 19/03 A3015 RMK A01 T01920032  RH  035%=      5-min Rain = 0
KMC4 051932Z 33015KT 19/03 A3015 RMK A01 T01930033  RH  035%=      5-min Rain = 0
KMC4 051933Z 33015G21KT 19/03 A3015 RMK A01 T01930034  RH  035%=      5-min Rain = 0
KMC4 051934Z 34020G25KT 20/03 A3015 RMK A01 T01960033  RH  034%=      5-min Rain = 0
KMC4 051935Z 34018KT 20/03 A3015 RMK A01 T01970029  RH  033%=      5-min Rain = 0
KMC4 051936Z 34018G25KT 19/03 A3015 RMK A01 T01940029  RH  033%=      5-min Rain = 0
KMC4 051937Z 33017KT 19/03 A3015 RMK A01 T01930030  RH  034%=      5-min Rain = 0
KMC4 051938Z 32015G20KT 19/03 A3015 RMK A01 T01940031  RH  034%=      5-min Rain = 0
KMC4 051939Z 32014G19KT 20/04 A3015 RMK A01 T01970035  RH  034%=      5-min Rain = 0
KMC4 051940Z 33018KT 20/04 A3015 RMK A01 T01990035  RH  034%=      5-min Rain = 0
KMC4 051941Z 35013KT 20/03 A3015 RMK A01 T01990034  RH  034%=      5-min Rain = 0
KMC4 051942Z 34013KT 20/03 A3015 RMK A01 T01980034  RH  034%=      5-min Rain = 0
KMC4 051943Z 34017G24KT 20/04 A3015 RMK A01 T01980035  RH  034%=      5-min Rain = 0
KMC4 051944Z 34016G22KT 20/03 A3015 RMK A01 T01970034  RH  034%=      5-min Rain = 0
KMC4 051945Z 36014KT 20/03 A3015 RMK A01 T01950034  RH  034%=      5-min Rain = 0
KMC4 051946Z 00012KT 20/03 A3015 RMK A01 T01950034  RH  035%=      5-min Rain = 0
KMC4 051947Z 35010KT 19/04 A3015 RMK A01 T01940036  RH  035%=      5-min Rain = 0
KMC4 051948Z 00011KT 20/04 A3015 RMK A01 T01960037  RH  035%=      5-min Rain = 0
KMC4 051949Z 34010G15KT 20/04 A3015 RMK A01 T01970038  RH  035%=      5-min Rain = 0
KMC4 051950Z 33016G22KT 20/04 A3015 RMK A01 T02000039  RH  035%=      5-min Rain = 0
KMC4 051951Z 34018G23KT 20/04 A3015 RMK A01 T02000038  RH  034%=      5-min Rain = 0
KMC4 051952Z 35013G19KT 20/04 A3015 RMK A01 T01990038  RH  035%=      5-min Rain = 0
KMC4 051953Z 34016G22KT 20/04 A3015 RMK A01 T01970037  RH  035%=      5-min Rain = 0
KMC4 051954Z 35015KT 19/04 A3015 RMK A01 T01930037  RH  036%=      5-min Rain = 0
KMC4 051955Z 01017KT 19/04 A3015 RMK A01 T01910037  RH  036%=      5-min Rain = 0
KMC4 051956Z 34013KT 19/04 A3015 RMK A01 T01900036  RH  036%=      5-min Rain = 0
KMC4 051957Z 34015G21KT 19/04 A3015 RMK A01 T01900036  RH  036%=      5-min Rain = 0
KMC4 051958Z 35019G26KT 19/04 A3015 RMK A01 T01920038  RH  036%=      5-min Rain = 0
KMC4 051959Z 34016G21KT 19/04 A3015 RMK A01 T01920040  RH  037%=      5-min Rain = 0
KMC4 052000Z 34018G23KT 19/04 A3015 RMK A01 T01910041  RH  037%=      5-min Rain = 0
KMC4 052001Z 34019KT 19/04 A3015 RMK A01 T01930041  RH  037%=      5-min Rain = 0
KMC4 052002Z 35014G19KT 19/04 A3015 RMK A01 T01920041  RH  037%=      5-min Rain = 0
KMC4 052003Z 34022KT 19/04 A3015 RMK A01 T01900040  RH  037%=      5-min Rain = 0
KMC4 052004Z 35019G24KT 19/04 A3015 RMK A01 T01860039  RH  038%=      5-min Rain = 0
KMC4 052005Z 35019G26KT 18/04 A3015 RMK A01 T01830038  RH  038%=      5-min Rain = 0
KMC4 052006Z 35018G23KT 18/04 A3015 RMK A01 T01830038  RH  038%=      5-min Rain = 0
KMC4 052007Z 35016KT 18/04 A3015 RMK A01 T01830038  RH  038%=      5-min Rain = 0
KMC4 052008Z 34022G27KT 19/04 A3015 RMK A01 T01850038  RH  038%=      5-min Rain = 0
KMC4 052009Z 34021G26KT 19/04 A3015 RMK A01 T01860037  RH  037%=      5-min Rain = 0
KMC4 052010Z 35017G22KT 19/04 A3015 RMK A01 T01870037  RH  037%=      5-min Rain = 0
KMC4 052011Z 35016KT 19/04 A3015 RMK A01 T01880037  RH  037%=      5-min Rain = 0
KMC4 052012Z 35017KT 19/04 A3015 RMK A01 T01870037  RH  037%=      5-min Rain = 0
KMC4 052013Z 36014G19KT 19/04 A3015 RMK A01 T01860038  RH  037%=      5-min Rain = 0
KMC4 052014Z 36015G20KT 19/04 A3015 RMK A01 T01870039  RH  038%=      5-min Rain = 0
KMC4 052015Z 01015KT 19/04 A3015 RMK A01 T01870039  RH  038%=      5-min Rain = 0
KMC4 052016Z 01015G21KT 19/04 A3015 RMK A01 T01870039  RH  037%=      5-min Rain = 0
KMC4 052017Z 35016G23KT 19/04 A3015 RMK A01 T01860039  RH  038%=      5-min Rain = 0
KMC4 052018Z 33016G21KT 19/04 A3015 RMK A01 T01860040  RH  038%=      5-min Rain = 0
KMC4 052019Z 33014KT 19/04 A3015 RMK A01 T01850041  RH  038%=      5-min Rain = 0
KMC4 052020Z 34011KT 19/04 A3015 RMK A01 T01860041  RH  038%=      5-min Rain = 0
KMC4 052021Z 36010KT 19/04 A3015 RMK A01 T01870042  RH  038%=      5-min Rain = 0
KMC4 052022Z 36011KT 19/04 A3015 RMK A01 T01890040  RH  037%=      5-min Rain = 0
KMC4 052023Z 35018G25KT 19/04 A3015 RMK A01 T01890039  RH  037%=      5-min Rain = 0
KMC4 052024Z 35019KT 19/04 A3015 RMK A01 T01870035  RH  036%=      5-min Rain = 0
KMC4 052025Z 35017G23KT 19/03 A3015 RMK A01 T01850034  RH  037%=      5-min Rain = 0
KMC4 052026Z 34017KT 19/04 A3015 RMK A01 T01850035  RH  037%=      5-min Rain = 0
KMC4 052027Z 35016G22KT 19/04 A3015 RMK A01 T01860037  RH  037%=      5-min Rain = 0
KMC4 052028Z 35017KT 19/04 A3015 RMK A01 T01870037  RH  037%=      5-min Rain = 0
KMC4 052029Z 34015G21KT 19/04 A3015 RMK A01 T01870037  RH  037%=      5-min Rain = 0
KMC4 052030Z 35018KT 19/04 A3015 RMK A01 T01880037  RH  037%=      5-min Rain = 0
KMC4 052031Z 33018KT 19/04 A3015 RMK A01 T01880038  RH  037%=      5-min Rain = 0
KMC4 052032Z 34016KT 19/04 A3015 RMK A01 T01890039  RH  037%=      5-min Rain = 0
KMC4 052033Z 33016KT 19/04 A3015 RMK A01 T01900038  RH  037%=      5-min Rain = 0
KMC4 052034Z 34018KT 19/04 A3015 RMK A01 T01900038  RH  037%=      5-min Rain = 0
KMC4 052035Z 36014KT 19/04 A3015 RMK A01 T01890038  RH  037%=      5-min Rain = 0
KMC4 052036Z 34012KT 19/04 A3015 RMK A01 T01890038  RH  037%=      5-min Rain = 0
KMC4 052037Z 35014KT 19/04 A3015 RMK A01 T01900036  RH  036%=      5-min Rain = 0
KMC4 052038Z 36014KT 19/04 A3015 RMK A01 T01900036  RH  036%=      5-min Rain = 0
KMC4 052039Z 00018KT 19/04 A3015 RMK A01 T01900035  RH  036%=      5-min Rain = 0
KMC4 052040Z 33016KT 19/03 A3015 RMK A01 T01910034  RH  035%=      5-min Rain = 0
KMC4 052041Z 33018KT 19/04 A3015 RMK A01 T01930037  RH  035%=      5-min Rain = 0
KMC4 052042Z 34018KT 19/04 A3015 RMK A01 T01930037  RH  035%=      5-min Rain = 0
KMC4 052043Z 35014KT 19/04 A3015 RMK A01 T01920035  RH  035%=      5-min Rain = 0
KMC4 052044Z 34017G22KT 19/04 A3015 RMK A01 T01920035  RH  035%=      5-min Rain = 0
KMC4 052045Z 33020KT 19/04 A3015 RMK A01 T01930035  RH  035%=      5-min Rain = 0
KMC4 052046Z 34017KT 19/03 A3015 RMK A01 T01930032  RH  034%=      5-min Rain = 0
KMC4 052047Z 34016KT 19/03 A3015 RMK A01 T01930032  RH  034%=      5-min Rain = 0
KMC4 052048Z 34015KT 19/03 A3015 RMK A01 T01930033  RH  035%=      5-min Rain = 0
KMC4 052049Z 35013G18KT 19/03 A3015 RMK A01 T01930034  RH  035%=      5-min Rain = 0
KMC4 052050Z 34015G20KT 20/03 A3015 RMK A01 T01950034  RH  035%=      5-min Rain = 0
KMC4 052051Z 34018KT 20/04 A3015 RMK A01 T01950035  RH  035%=      5-min Rain = 0
KMC4 052052Z 00016G21KT 20/03 A3015 RMK A01 T01960033  RH  034%=      5-min Rain = 0
KMC4 052053Z 00016KT 20/03 A3015 RMK A01 T01950034  RH  034%=      5-min Rain = 0
KMC4 052054Z 01012KT 19/03 A3015 RMK A01 T01940033  RH  034%=      5-min Rain = 0
KMC4 052055Z 01013KT 19/03 A3015 RMK A01 T01940033  RH  034%=      5-min Rain = 0
KMC4 052056Z 01013KT 19/03 A3015 RMK A01 T01930032  RH  034%=      5-min Rain = 0
KMC4 052057Z 00012KT 19/03 A3015 RMK A01 T01910033  RH  035%=      5-min Rain = 0
KMC4 052058Z 34012KT 19/03 A3015 RMK A01 T01930033  RH  035%=      5-min Rain = 0
KMC4 052059Z 35010KT 20/03 A3015 RMK A01 T01950033  RH  034%=      5-min Rain = 0
KMC4 052100Z 33011G16KT 20/04 A3015 RMK A01 T01980035  RH  034%=      5-min Rain = 0
KMC4 052101Z 33009G14KT 20/03 A3015 RMK A01 T02000034  RH  033%=      5-min Rain = 0
KMC4 052102Z 33015KT 20/04 A3015 RMK A01 T02020036  RH  034%=      5-min Rain = 0
KMC4 052103Z 33014KT 20/04 A3015 RMK A01 T02020037  RH  034%=      5-min Rain = 0
KMC4 052104Z 33016KT 20/04 A3015 RMK A01 T02000036  RH  034%=      5-min Rain = 0
KMC4 052105Z 34014G19KT 20/04 A3015 RMK A01 T01990036  RH  034%=      5-min Rain = 0
KMC4 052106Z 34016KT 20/03 A3015 RMK A01 T02000034  RH  033%=      5-min Rain = 0
KMC4 052107Z 35015KT 20/03 A3015 RMK A01 T02000032  RH  033%=      5-min Rain = 0
KMC4 052108Z 35014G19KT 20/03 A3015 RMK A01 T01980031  RH  033%=      5-min Rain = 0
KMC4 052109Z 34012KT 20/03 A3015 RMK A01 T01960031  RH  034%=      5-min Rain = 0
KMC4 052110Z 36011KT 20/03 A3015 RMK A01 T01960032  RH  034%=      5-min Rain = 0
KMC4 052111Z 35010KT 20/03 A3015 RMK A01 T01970032  RH  034%=      5-min Rain = 0
KMC4 052112Z 01011G16KT 20/03 A3015 RMK A01 T01960032  RH  034%=      5-min Rain = 0
KMC4 052113Z 01013KT 20/03 A3015 RMK A01 T01950032  RH  034%=      5-min Rain = 0
KMC4 052114Z 35015KT 20/03 A3015 RMK A01 T01950031  RH  034%=      5-min Rain = 0
KMC4 052115Z 00019KT 20/03 A3015 RMK A01 T01950028  RH  033%=      5-min Rain = 0
KMC4 052116Z 34012KT 19/03 A3015 RMK A01 T01920027  RH  033%=      5-min Rain = 0
KMC4 052117Z 35013KT 19/03 A3015 RMK A01 T01920027  RH  033%=      5-min Rain = 0
KMC4 052118Z 34014G19KT 19/03 A3015 RMK A01 T01930027  RH  033%=      5-min Rain = 0
KMC4 052119Z 35014G21KT 19/03 A3015 RMK A01 T01940027  RH  033%=      5-min Rain = 0
KMC4 052120Z 34015G21KT 19/03 A3015 RMK A01 T01940029  RH  033%=      5-min Rain = 0
KMC4 052121Z 35014KT 19/03 A3015 RMK A01 T01940029  RH  034%=      5-min Rain = 0
KMC4 052122Z 01014G19KT 19/03 A3015 RMK A01 T01930029  RH  033%=      5-min Rain = 0
KMC4 052123Z 01014KT 19/03 A3015 RMK A01 T01920028  RH  034%=      5-min Rain = 0
KMC4 052124Z 01014G19KT 19/03 A3015 RMK A01 T01910028  RH  034%=      5-min Rain = 0
KMC4 052125Z 01014KT 19/03 A3015 RMK A01 T01890028  RH  034%=      5-min Rain = 0
KMC4 052126Z 02012G17KT 19/03 A3015 RMK A01 T01890029  RH  034%=      5-min Rain = 0
KMC4 052127Z 01018G24KT 19/03 A3015 RMK A01 T01910031  RH  034%=      5-min Rain = 0
KMC4 052128Z 01019G24KT 19/03 A3015 RMK A01 T01920031  RH  034%=      5-min Rain = 0
KMC4 052129Z 35018KT 19/03 A3015 RMK A01 T01920030  RH  034%=      5-min Rain = 0
KMC4 052130Z 35016KT 19/03 A3015 RMK A01 T01900029  RH  034%=      5-min Rain = 0
KMC4 052131Z 35013KT 19/03 A3016 RMK A01 T01890030  RH  035%=      5-min Rain = 0
KMC4 052132Z 01011KT 19/03 A3016 RMK A01 T01890030  RH  035%=      5-min Rain = 0
KMC4 052133Z 00017KT 19/03 A3016 RMK A01 T01910029  RH  034%=      5-min Rain = 0
KMC4 052134Z 01013KT 19/03 A3016 RMK A01 T01910027  RH  034%=      5-min Rain = 0
KMC4 052135Z 36017KT 19/03 A3016 RMK A01 T01910027  RH  034%=      5-min Rain = 0
KMC4 052136Z 01013G18KT 19/03 A3016 RMK A01 T01920028  RH  034%=      5-min Rain = 0
KMC4 052137Z 00015G20KT 19/03 A3016 RMK A01 T01920029  RH  034%=      5-min Rain = 0
KMC4 052138Z 35015KT 19/03 A3016 RMK A01 T01920029  RH  034%=      5-min Rain = 0
KMC4 052139Z 36012KT 19/03 A3016 RMK A01 T01910030  RH  034%=      5-min Rain = 0
KMC4 052140Z 34012G19KT 19/03 A3016 RMK A01 T01920031  RH  034%=      5-min Rain = 0
KMC4 052141Z 01015KT 19/03 A3016 RMK A01 T01940033  RH  034%=      5-min Rain = 0
KMC4 052142Z 01017KT 20/03 A3016 RMK A01 T01960033  RH  034%=      5-min Rain = 0
KMC4 052143Z 02014G20KT 20/03 A3016 RMK A01 T01960034  RH  034%=      5-min Rain = 0
KMC4 052144Z 02017KT 20/03 A3016 RMK A01 T01970034  RH  034%=      5-min Rain = 0
KMC4 052145Z 01017KT 20/03 A3016 RMK A01 T01970034  RH  034%=      5-min Rain = 0
KMC4 052146Z 00015G21KT 20/03 A3016 RMK A01 T01960033  RH  034%=      5-min Rain = 0
KMC4 052147Z 00011G16KT 20/03 A3016 RMK A01 T01960033  RH  034%=      5-min Rain = 0
KMC4 052148Z 00011G17KT 20/03 A3016 RMK A01 T01950033  RH  034%=      5-min Rain = 0
KMC4 052149Z 01014G19KT 20/03 A3016 RMK A01 T01950033  RH  034%=      5-min Rain = 0
KMC4 052150Z 01015G21KT 19/03 A3016 RMK A01 T01940033  RH  034%=      5-min Rain = 0
KMC4 052151Z 36015G22KT 19/03 A3016 RMK A01 T01930033  RH  035%=      5-min Rain = 0
KMC4 052152Z 01018KT 19/03 A3016 RMK A01 T01930033  RH  035%=      5-min Rain = 0
KMC4 052153Z 01018KT 19/03 A3016 RMK A01 T01920033  RH  035%=      5-min Rain = 0
KMC4 052154Z 01014KT 19/03 A3016 RMK A01 T01910032  RH  035%=      5-min Rain = 0
KMC4 052155Z 00015KT 19/03 A3016 RMK A01 T01900032  RH  035%=      5-min Rain = 0
KMC4 052156Z 35012KT 19/03 A3017 RMK A01 T01900032  RH  035%=      5-min Rain = 0
KMC4 052157Z 35011KT 19/03 A3017 RMK A01 T01910033  RH  035%=      5-min Rain = 0
KMC4 052158Z 34013G21KT 19/03 A3017 RMK A01 T01930033  RH  035%=      5-min Rain = 0
KMC4 052159Z 34017KT 19/03 A3017 RMK A01 T01940032  RH  034%=      5-min Rain = 0
KMC4 052200Z 34013KT 19/03 A3017 RMK A01 T01940033  RH  034%=      5-min Rain = 0
KMC4 052201Z 36015G21KT 19/03 A3017 RMK A01 T01930033  RH  035%=      5-min Rain = 0
KMC4 052202Z 00017KT 19/03 A3017 RMK A01 T01920031  RH  034%=      5-min Rain = 0
KMC4 052203Z 36014KT 19/03 A3017 RMK A01 T01910031  RH  034%=      5-min Rain = 0
KMC4 052204Z 00013KT 19/03 A3017 RMK A01 T01900030  RH  035%=      5-min Rain = 0
KMC4 052205Z 01014KT 19/03 A3017 RMK A01 T01890029  RH  035%=      5-min Rain = 0
KMC4 052206Z 00013KT 19/03 A3017 RMK A01 T01880029  RH  035%=      5-min Rain = 0
KMC4 052207Z 00013KT 19/03 A3017 RMK A01 T01880029  RH  035%=      5-min Rain = 0
KMC4 052208Z 34013G18KT 19/03 A3017 RMK A01 T01880030  RH  035%=      5-min Rain = 0
KMC4 052209Z 34017KT 19/03 A3017 RMK A01 T01880032  RH  035%=      5-min Rain = 0
KMC4 052210Z 34015KT 19/03 A3017 RMK A01 T01870032  RH  036%=      5-min Rain = 0
KMC4 052211Z 35016KT 19/03 A3017 RMK A01 T01870033  RH  036%=      5-min Rain = 0
KMC4 052212Z 35017KT 19/03 A3017 RMK A01 T01860031  RH  036%=      5-min Rain = 0
KMC4 052213Z 35017KT 18/03 A3017 RMK A01 T01840031  RH  036%=      5-min Rain = 0
KMC4 052214Z 35014KT 18/03 A3017 RMK A01 T01830030  RH  036%=      5-min Rain = 0
KMC4 052215Z 00014G20KT 18/03 A3017 RMK A01 T01830030  RH  036%=      5-min Rain = 0
KMC4 052216Z 36017KT 18/03 A3017 RMK A01 T01830030  RH  036%=      5-min Rain = 0
KMC4 052217Z 35014KT 18/03 A3017 RMK A01 T01830029  RH  036%=      5-min Rain = 0
KMC4 052218Z 34015KT 18/03 A3017 RMK A01 T01830031  RH  036%=      5-min Rain = 0
KMC4 052219Z 34016KT 18/03 A3017 RMK A01 T01820031  RH  036%=      5-min Rain = 0
KMC4 052220Z 34015G20KT 18/03 A3017 RMK A01 T01830031  RH  036%=      5-min Rain = 0
KMC4 052221Z 34016KT 18/03 A3017 RMK A01 T01830031  RH  036%=      5-min Rain = 0
KMC4 052222Z 35015G20KT 18/03 A3017 RMK A01 T01840031  RH  036%=      5-min Rain = 0
KMC4 052223Z 34015KT 18/03 A3017 RMK A01 T01840031  RH  036%=      5-min Rain = 0
KMC4 052224Z 35012KT 19/03 A3017 RMK A01 T01850031  RH  036%=      5-min Rain = 0
KMC4 052225Z 34016G22KT 19/03 A3017 RMK A01 T01860031  RH  036%=      5-min Rain = 0
KMC4 052226Z 34015KT 19/03 A3017 RMK A01 T01870030  RH  035%=      5-min Rain = 0
KMC4 052227Z 34015KT 19/03 A3017 RMK A01 T01880030  RH  035%=      5-min Rain = 0
KMC4 052228Z 34014KT 19/03 A3017 RMK A01 T01870031  RH  035%=      5-min Rain = 0
KMC4 052229Z 35015KT 19/03 A3017 RMK A01 T01890031  RH  035%=      5-min Rain = 0
KMC4 052230Z 35014G20KT 19/03 A3017 RMK A01 T01890031  RH  035%=      5-min Rain = 0
KMC4 052231Z 35014KT 19/03 A3017 RMK A01 T01880031  RH  035%=      5-min Rain = 0
KMC4 052232Z 34011KT 19/03 A3017 RMK A01 T01880031  RH  035%=      5-min Rain = 0
KMC4 052233Z 33014G19KT 19/03 A3017 RMK A01 T01870031  RH  035%=      5-min Rain = 0
KMC4 052234Z 34017KT 19/03 A3017 RMK A01 T01870031  RH  035%=      5-min Rain = 0
KMC4 052235Z 33018KT 19/03 A3017 RMK A01 T01870031  RH  035%=      5-min Rain = 0
KMC4 052236Z 33016G22KT 19/03 A3017 RMK A01 T01860031  RH  036%=      5-min Rain = 0
KMC4 052237Z 33017G22KT 19/03 A3017 RMK A01 T01850031  RH  036%=      5-min Rain = 0
KMC4 052238Z 34019KT 19/03 A3018 RMK A01 T01850030  RH  036%=      5-min Rain = 0
KMC4 052239Z 33012G18KT 19/03 A3017 RMK A01 T01850031  RH  036%=      5-min Rain = 0
KMC4 052240Z 33016KT 19/03 A3018 RMK A01 T01860032  RH  036%=      5-min Rain = 0
KMC4 052241Z 33012KT 19/03 A3018 RMK A01 T01850032  RH  036%=      5-min Rain = 0
KMC4 052242Z 33014G19KT 18/03 A3017 RMK A01 T01840033  RH  036%=      5-min Rain = 0
KMC4 052243Z 33016KT 19/03 A3018 RMK A01 T01850034  RH  036%=      5-min Rain = 0
KMC4 052244Z 34013KT 19/03 A3018 RMK A01 T01860034  RH  037%=      5-min Rain = 0
KMC4 052245Z 34013KT 19/04 A3018 RMK A01 T01860035  RH  037%=      5-min Rain = 0
KMC4 052246Z 34011KT 19/03 A3018 RMK A01 T01860034  RH  036%=      5-min Rain = 0
KMC4 052247Z 35011G18KT 19/03 A3018 RMK A01 T01850034  RH  037%=      5-min Rain = 0
KMC4 052248Z 34016KT 19/03 A3018 RMK A01 T01850034  RH  037%=      5-min Rain = 0
KMC4 052249Z 35016G21KT 18/03 A3018 RMK A01 T01840032  RH  036%=      5-min Rain = 0
KMC4 052250Z 35014KT 18/03 A3018 RMK A01 T01830032  RH  036%=      5-min Rain = 0
KMC4 052251Z 36014G20KT 18/03 A3018 RMK A01 T01830032  RH  037%=      5-min Rain = 0
KMC4 052252Z 35015G20KT 18/03 A3018 RMK A01 T01840033  RH  037%=      5-min Rain = 0
KMC4 052253Z 35015KT 18/03 A3018 RMK A01 T01830033  RH  037%=      5-min Rain = 0
KMC4 052254Z 35014KT 18/03 A3018 RMK A01 T01830033  RH  037%=      5-min Rain = 0
KMC4 052255Z 35012KT 18/03 A3018 RMK A01 T01830033  RH  037%=      5-min Rain = 0
KMC4 052256Z 35013KT 18/03 A3018 RMK A01 T01830033  RH  037%=      5-min Rain = 0
KMC4 052257Z 00011KT 18/03 A3018 RMK A01 T01830033  RH  037%=      5-min Rain = 0
KMC4 052258Z 01011G17KT 18/03 A3018 RMK A01 T01830033  RH  037%=      5-min Rain = 0
KMC4 052259Z 35015G20KT 18/03 A3018 RMK A01 T01840033  RH  037%=      5-min Rain = 0
KMC4 052300Z 35016KT 18/03 A3018 RMK A01 T01840031  RH  036%=      5-min Rain = 0
KMC4 052301Z 35014G19KT 18/03 A3018 RMK A01 T01830030  RH  036%=      5-min Rain = 0
KMC4 052302Z 34014G19KT 18/03 A3018 RMK A01 T01820030  RH  036%=      5-min Rain = 0
KMC4 052303Z 35014KT 18/03 A3018 RMK A01 T01830030  RH  036%=      5-min Rain = 0
KMC4 052304Z 35013KT 18/03 A3018 RMK A01 T01820030  RH  036%=      5-min Rain = 0
KMC4 052305Z 00014KT 18/03 A3018 RMK A01 T01820029  RH  036%=      5-min Rain = 0
KMC4 052306Z 35014G19KT 18/03 A3018 RMK A01 T01820028  RH  036%=      5-min Rain = 0
KMC4 052307Z 35012G17KT 18/03 A3018 RMK A01 T01820028  RH  036%=      5-min Rain = 0
KMC4 052308Z 35012G17KT 18/03 A3018 RMK A01 T01830029  RH  036%=      5-min Rain = 0
KMC4 052309Z 36016KT 18/03 A3018 RMK A01 T01840030  RH  036%=      5-min Rain = 0
KMC4 052310Z 36015KT 18/03 A3018 RMK A01 T01840031  RH  036%=      5-min Rain = 0
KMC4 052311Z 36018G24KT 18/03 A3018 RMK A01 T01830031  RH  036%=      5-min Rain = 0
KMC4 052312Z 34016KT 18/03 A3018 RMK A01 T01830032  RH  037%=      5-min Rain = 0
KMC4 052313Z 35017KT 18/03 A3018 RMK A01 T01820032  RH  037%=      5-min Rain = 0
KMC4 052314Z 35018KT 18/03 A3018 RMK A01 T01810032  RH  037%=      5-min Rain = 0
KMC4 052315Z 35015KT 18/03 A3018 RMK A01 T01800031  RH  037%=      5-min Rain = 0
KMC4 052316Z 35013KT 18/03 A3018 RMK A01 T01800031  RH  037%=      5-min Rain = 0
KMC4 052317Z 34013KT 18/03 A3019 RMK A01 T01800031  RH  037%=      5-min Rain = 0
KMC4 052318Z 34015KT 18/03 A3019 RMK A01 T01800030  RH  037%=      5-min Rain = 0
KMC4 052319Z 35015G20KT 18/03 A3019 RMK A01 T01800030  RH  037%=      5-min Rain = 0
KMC4 052320Z 35015KT 18/03 A3019 RMK A01 T01790029  RH  037%=      5-min Rain = 0
KMC4 052321Z 35014G19KT 18/03 A3019 RMK A01 T01790030  RH  037%=      5-min Rain = 0
KMC4 052322Z 35015G20KT 18/03 A3019 RMK A01 T01790030  RH  037%=      5-min Rain = 0
KMC4 052323Z 34014KT 18/03 A3019 RMK A01 T01800030  RH  037%=      5-min Rain = 0
KMC4 052324Z 00013G18KT 18/03 A3019 RMK A01 T01800030  RH  037%=      5-min Rain = 0
KMC4 052325Z 01015KT 18/03 A3019 RMK A01 T01800030  RH  037%=      5-min Rain = 0
KMC4 052326Z 00013G18KT 18/03 A3019 RMK A01 T01800030  RH  037%=      5-min Rain = 0
KMC4 052327Z 00013G18KT 18/03 A3019 RMK A01 T01800030  RH  037%=      5-min Rain = 0
KMC4 052328Z 01016G21KT 18/03 A3019 RMK A01 T01810030  RH  037%=      5-min Rain = 0
KMC4 052329Z 01015G20KT 18/03 A3019 RMK A01 T01810030  RH  036%=      5-min Rain = 0
KMC4 052330Z 01015KT 18/03 A3019 RMK A01 T01810030  RH  036%=      5-min Rain = 0
KMC4 052331Z 01012KT 18/03 A3019 RMK A01 T01800029  RH  037%=      5-min Rain = 0
KMC4 052332Z 01015KT 18/03 A3019 RMK A01 T01800030  RH  037%=      5-min Rain = 0
KMC4 052333Z 01014G19KT 18/03 A3019 RMK A01 T01800030  RH  037%=      5-min Rain = 0
KMC4 052334Z 36013KT 18/03 A3019 RMK A01 T01800029  RH  036%=      5-min Rain = 0
KMC4 052335Z 01013G22KT 18/03 A3019 RMK A01 T01800029  RH  036%=      5-min Rain = 0
KMC4 052336Z 00017KT 18/03 A3019 RMK A01 T01810028  RH  036%=      5-min Rain = 0
KMC4 052337Z 34015KT 18/03 A302 RMK A01 T01800028  RH  036%=      5-min Rain = 0
KMC4 052338Z 35014KT 18/03 A302 RMK A01 T01810028  RH  036%=      5-min Rain = 0
KMC4 052339Z 35015KT 18/03 A302 RMK A01 T01800027  RH  036%=      5-min Rain = 0
KMC4 052340Z 36017KT 18/03 A302 RMK A01 T01790026  RH  036%=      5-min Rain = 0
KMC4 052341Z 35014KT 18/03 A302 RMK A01 T01790026  RH  036%=      5-min Rain = 0
KMC4 052342Z 35012KT 18/03 A302 RMK A01 T01790026  RH  036%=      5-min Rain = 0
KMC4 052343Z 35014KT 18/03 A302 RMK A01 T01790027  RH  036%=      5-min Rain = 0
KMC4 052344Z 36017KT 18/03 A302 RMK A01 T01790027  RH  036%=      5-min Rain = 0
KMC4 052345Z 36015KT 18/03 A302 RMK A01 T01780027  RH  036%=      5-min Rain = 0
KMC4 052346Z 36013KT 18/03 A302 RMK A01 T01780027  RH  036%=      5-min Rain = 0
KMC4 052347Z 01011G16KT 18/03 A302 RMK A01 T01770027  RH  037%=      5-min Rain = 0
KMC4 052348Z 36015G20KT 18/03 A302 RMK A01 T01770027  RH  037%=      5-min Rain = 0
KMC4 052349Z 36015G20KT 18/03 A302 RMK A01 T01780027  RH  037%=      5-min Rain = 0
KMC4 052350Z 01016KT 18/03 A302 RMK A01 T01770026  RH  036%=      5-min Rain = 0
KMC4 052351Z 01013KT 18/03 A302 RMK A01 T01760025  RH  036%=      5-min Rain = 0
KMC4 052352Z 01015G21KT 18/02 A302 RMK A01 T01760024  RH  036%=      5-min Rain = 0
KMC4 052353Z 01016KT 18/02 A302 RMK A01 T01750023  RH  036%=      5-min Rain = 0
KMC4 052354Z 00015KT 18/02 A302 RMK A01 T01750022  RH  036%=      5-min Rain = 0
KMC4 052355Z 01011G16KT 17/02 A302 RMK A01 T01740022  RH  036%=      5-min Rain = 0
KMC4 052356Z 01014G20KT 17/02 A302 RMK A01 T01740022  RH  036%=      5-min Rain = 0
KMC4 052357Z 00013KT 17/02 A302 RMK A01 T01740022  RH  036%=      5-min Rain = 0
KMC4 052358Z 00012G19KT 17/02 A302 RMK A01 T01730022  RH  036%=      5-min Rain = 0
KMC4 052359Z 35014G20KT 17/02 A302 RMK A01 T01720022  RH  036%=      5-min Rain = 0
KMC4 060000Z 01012G17KT 17/02 A3021 RMK A01 T01720021  RH  036%=      5-min Rain = 0
KMC4 060001Z 01016G21KT 17/02 A3021 RMK A01 T01720021  RH  036%=      5-min Rain = 0
KMC4 060002Z 01013KT 17/02 A3021 RMK A01 T01720021  RH  036%=      5-min Rain = 0
KMC4 060003Z 01016G21KT 17/02 A3021 RMK A01 T01720021  RH  036%=      5-min Rain = 0
KMC4 060004Z 01015KT 17/02 A3021 RMK A01 T01720021  RH  036%=      5-min Rain = 0
KMC4 060005Z 01015KT 17/02 A3021 RMK A01 T01710022  RH  037%=      5-min Rain = 0
KMC4 060006Z 01015G20KT 17/02 A3021 RMK A01 T01710022  RH  037%=      5-min Rain = 0
KMC4 060007Z 00013G18KT 17/02 A3021 RMK A01 T01710022  RH  037%=      5-min Rain = 0
KMC4 060008Z 00011KT 17/02 A3021 RMK A01 T01710022  RH  037%=      5-min Rain = 0
KMC4 060009Z 01013KT 17/02 A3021 RMK A01 T01710022  RH  037%=      5-min Rain = 0
KMC4 060010Z 01014KT 17/02 A3021 RMK A01 T01710023  RH  037%=      5-min Rain = 0
KMC4 060011Z 01011KT 17/02 A3021 RMK A01 T01710023  RH  037%=      5-min Rain = 0
KMC4 060012Z 02014G19KT 17/02 A3021 RMK A01 T01700023  RH  037%=      5-min Rain = 0
KMC4 060013Z 01016KT 17/02 A3021 RMK A01 T01700022  RH  037%=      5-min Rain = 0
KMC4 060014Z 01017KT 17/02 A3021 RMK A01 T01690022  RH  037%=      5-min Rain = 0
KMC4 060015Z 01015G20KT 17/02 A3021 RMK A01 T01680022  RH  037%=      5-min Rain = 0
KMC4 060016Z 01016KT 17/02 A3022 RMK A01 T01670022  RH  037%=      5-min Rain = 0
KMC4 060017Z 01013G18KT 17/02 A3022 RMK A01 T01670021  RH  038%=      5-min Rain = 0
KMC4 060018Z 01014G19KT 17/02 A3022 RMK A01 T01670021  RH  038%=      5-min Rain = 0
KMC4 060019Z 00014G20KT 17/02 A3022 RMK A01 T01670021  RH  038%=      5-min Rain = 0
KMC4 060020Z 01015KT 17/02 A3022 RMK A01 T01660021  RH  038%=      5-min Rain = 0
KMC4 060021Z 01013G19KT 17/02 A3022 RMK A01 T01660021  RH  038%=      5-min Rain = 0
KMC4 060022Z 01014G22KT 17/02 A3022 RMK A01 T01660021  RH  038%=      5-min Rain = 0
KMC4 060023Z 01015KT 17/02 A3022 RMK A01 T01650020  RH  038%=      5-min Rain = 0
KMC4 060024Z 01016KT 17/02 A3022 RMK A01 T01650021  RH  038%=      5-min Rain = 0
KMC4 060025Z 01016KT 16/02 A3022 RMK A01 T01640021  RH  038%=      5-min Rain = 0
KMC4 060026Z 02013KT 16/02 A3022 RMK A01 T01640021  RH  038%=      5-min Rain = 0
KMC4 060027Z 01012KT 16/02 A3022 RMK A01 T01640021  RH  038%=      5-min Rain = 0
KMC4 060028Z 02012KT 16/02 A3022 RMK A01 T01630020  RH  038%=      5-min Rain = 0
KMC4 060029Z 02013KT 16/02 A3022 RMK A01 T01640021  RH  038%=      5-min Rain = 0
KMC4 060030Z 01013KT 16/02 A3022 RMK A01 T01630021  RH  038%=      5-min Rain = 0
KMC4 060031Z 01013KT 16/02 A3022 RMK A01 T01630021  RH  038%=      5-min Rain = 0
KMC4 060032Z 02013G18KT 16/02 A3022 RMK A01 T01630021  RH  038%=      5-min Rain = 0
KMC4 060033Z 01010KT 16/02 A3022 RMK A01 T01620021  RH  038%=      5-min Rain = 0
KMC4 060034Z 01011KT 16/02 A3022 RMK A01 T01620021  RH  038%=      5-min Rain = 0
KMC4 060035Z 01011KT 16/02 A3022 RMK A01 T01620021  RH  039%=      5-min Rain = 0
KMC4 060036Z 01012KT 16/02 A3022 RMK A01 T01620021  RH  039%=      5-min Rain = 0
KMC4 060037Z 01013KT 16/02 A3022 RMK A01 T01620021  RH  039%=      5-min Rain = 0
KMC4 060038Z 01011KT 16/02 A3023 RMK A01 T01610021  RH  039%=      5-min Rain = 0
KMC4 060039Z 00013KT 16/02 A3022 RMK A01 T01610021  RH  039%=      5-min Rain = 0
KMC4 060040Z 02013G18KT 16/02 A3022 RMK A01 T01610020  RH  039%=      5-min Rain = 0
KMC4 060041Z 01014KT 16/02 A3023 RMK A01 T01610021  RH  039%=      5-min Rain = 0
KMC4 060042Z 01013G18KT 16/02 A3023 RMK A01 T01600020  RH  039%=      5-min Rain = 0
KMC4 060043Z 01013G18KT 16/02 A3023 RMK A01 T01600021  RH  039%=      5-min Rain = 0
KMC4 060044Z 01011KT 16/02 A3023 RMK A01 T01600021  RH  039%=      5-min Rain = 0
KMC4 060045Z 01012KT 16/02 A3023 RMK A01 T01600021  RH  039%=      5-min Rain = 0
KMC4 060046Z 01013KT 16/02 A3023 RMK A01 T01590020  RH  039%=      5-min Rain = 0
KMC4 060047Z 01014KT 16/02 A3023 RMK A01 T01590021  RH  039%=      5-min Rain = 0
KMC4 060048Z 01012G17KT 16/02 A3023 RMK A01 T01590021  RH  039%=      5-min Rain = 0
KMC4 060049Z 01010KT 16/02 A3023 RMK A01 T01590021  RH  039%=      5-min Rain = 0
KMC4 060050Z 01009KT 16/02 A3023 RMK A01 T01590021  RH  039%=      5-min Rain = 0
KMC4 060051Z 01011KT 16/02 A3023 RMK A01 T01590021  RH  039%=      5-min Rain = 0
KMC4 060052Z 01012G17KT 16/02 A3023 RMK A01 T01580021  RH  040%=      5-min Rain = 0
KMC4 060053Z 01013KT 16/02 A3023 RMK A01 T01580021  RH  040%=      5-min Rain = 0
KMC4 060054Z 02011KT 16/02 A3023 RMK A01 T01580021  RH  040%=      5-min Rain = 0
KMC4 060055Z 02010G16KT 16/02 A3023 RMK A01 T01570021  RH  040%=      5-min Rain = 0
KMC4 060056Z 01012KT 16/02 A3023 RMK A01 T01570021  RH  040%=      5-min Rain = 0
KMC4 060057Z 01011KT 16/02 A3023 RMK A01 T01570021  RH  040%=      5-min Rain = 0
KMC4 060058Z 02010G16KT 16/02 A3024 RMK A01 T01560021  RH  040%=      5-min Rain = 0
KMC4 060059Z 00010KT 16/02 A3024 RMK A01 T01560021  RH  040%=      5-min Rain = 0
KMC4 060100Z 02010KT 16/02 A3024 RMK A01 T01560022  RH  040%=      5-min Rain = 0
KMC4 060101Z 01010G15KT 16/02 A3024 RMK A01 T01560022  RH  041%=      5-min Rain = 0
KMC4 060102Z 01012KT 16/02 A3024 RMK A01 T01550022  RH  041%=      5-min Rain = 0
KMC4 060103Z 01013KT 16/02 A3024 RMK A01 T01550022  RH  041%=      5-min Rain = 0
KMC4 060104Z 01011KT 15/02 A3024 RMK A01 T01540022  RH  041%=      5-min Rain = 0
KMC4 060105Z 01011G16KT 15/02 A3024 RMK A01 T01540022  RH  041%=      5-min Rain = 0
KMC4 060106Z 02012KT 15/02 A3024 RMK A01 T01540022  RH  041%=      5-min Rain = 0
KMC4 060107Z 01011KT 15/02 A3024 RMK A01 T01530022  RH  041%=      5-min Rain = 0
KMC4 060108Z 01010KT 15/02 A3025 RMK A01 T01530022  RH  041%=      5-min Rain = 0
KMC4 060109Z 01009KT 15/02 A3025 RMK A01 T01530022  RH  041%=      5-min Rain = 0
KMC4 060110Z 00012G17KT 15/02 A3025 RMK A01 T01530022  RH  041%=      5-min Rain = 0
KMC4 060111Z 01012KT 15/02 A3025 RMK A01 T01530022  RH  041%=      5-min Rain = 0
KMC4 060112Z 00016KT 15/02 A3025 RMK A01 T01520022  RH  041%=      5-min Rain = 0
KMC4 060113Z 00012KT 15/02 A3025 RMK A01 T01520022  RH  041%=      5-min Rain = 0
KMC4 060114Z 00011KT 15/02 A3025 RMK A01 T01530023  RH  041%=      5-min Rain = 0
KMC4 060115Z 01009KT 15/02 A3025 RMK A01 T01520022  RH  041%=      5-min Rain = 0
KMC4 060116Z 01010KT 15/02 A3025 RMK A01 T01520022  RH  042%=      5-min Rain = 0
KMC4 060117Z 00010KT 15/02 A3025 RMK A01 T01510022  RH  042%=      5-min Rain = 0
KMC4 060118Z 36009KT 15/02 A3025 RMK A01 T01510022  RH  042%=      5-min Rain = 0
KMC4 060119Z 00009KT 15/02 A3025 RMK A01 T01510022  RH  042%=      5-min Rain = 0
KMC4 060120Z 36010KT 15/02 A3025 RMK A01 T01500022  RH  042%=      5-min Rain = 0
KMC4 060121Z 35010KT 15/02 A3025 RMK A01 T01500022  RH  042%=      5-min Rain = 0
KMC4 060122Z 01008KT 15/02 A3025 RMK A01 T01500022  RH  042%=      5-min Rain = 0
KMC4 060123Z 01006KT 15/02 A3025 RMK A01 T01500022  RH  042%=      5-min Rain = 0
KMC4 060124Z 01009KT 15/02 A3025 RMK A01 T01490022  RH  042%=      5-min Rain = 0
KMC4 060125Z 00009KT 15/02 A3025 RMK A01 T01490022  RH  042%=      5-min Rain = 0
KMC4 060126Z 00008KT 15/02 A3025 RMK A01 T01490022  RH  042%=      5-min Rain = 0
KMC4 060127Z 00010KT 15/02 A3025 RMK A01 T01490022  RH  042%=      5-min Rain = 0
KMC4 060128Z 01012KT 15/02 A3025 RMK A01 T01490022  RH  042%=      5-min Rain = 0
KMC4 060129Z 36011KT 15/02 A3026 RMK A01 T01480022  RH  042%=      5-min Rain = 0
KMC4 060130Z 36013G18KT 15/02 A3026 RMK A01 T01480022  RH  042%=      5-min Rain = 0
KMC4 060131Z 01014G20KT 15/02 A3026 RMK A01 T01480022  RH  043%=      5-min Rain = 0
KMC4 060132Z 36011G16KT 15/02 A3026 RMK A01 T01480022  RH  043%=      5-min Rain = 0
KMC4 060133Z 00013G18KT 15/02 A3026 RMK A01 T01480022  RH  043%=      5-min Rain = 0
KMC4 060134Z 35014KT 15/02 A3026 RMK A01 T01470022  RH  043%=      5-min Rain = 0
KMC4 060135Z 36011KT 15/02 A3026 RMK A01 T01470022  RH  043%=      5-min Rain = 0
KMC4 060136Z 00011KT 15/02 A3026 RMK A01 T01470022  RH  043%=      5-min Rain = 0
KMC4 060137Z 36011KT 15/02 A3026 RMK A01 T01460022  RH  043%=      5-min Rain = 0
KMC4 060138Z 35014KT 15/02 A3026 RMK A01 T01460022  RH  043%=      5-min Rain = 0
KMC4 060139Z 36014KT 15/02 A3026 RMK A01 T01460021  RH  043%=      5-min Rain = 0
KMC4 060140Z 00010G15KT 15/02 A3026 RMK A01 T01460021  RH  043%=      5-min Rain = 0
KMC4 060141Z 00009KT 15/02 A3027 RMK A01 T01450021  RH  043%=      5-min Rain = 0
KMC4 060142Z 36009KT 15/02 A3027 RMK A01 T01450021  RH  043%=      5-min Rain = 0
KMC4 060143Z 36013KT 14/02 A3027 RMK A01 T01440021  RH  043%=      5-min Rain = 0
KMC4 060144Z 36012KT 14/02 A3027 RMK A01 T01440021  RH  043%=      5-min Rain = 0
KMC4 060145Z 36011G17KT 14/02 A3027 RMK A01 T01440021  RH  043%=      5-min Rain = 0
KMC4 060146Z 36012KT 14/02 A3027 RMK A01 T01440021  RH  043%=      5-min Rain = 0
KMC4 060147Z 36010KT 14/02 A3027 RMK A01 T01440021  RH  043%=      5-min Rain = 0
KMC4 060148Z 01010KT 14/02 A3027 RMK A01 T01430021  RH  044%=      5-min Rain = 0
KMC4 060149Z 00011KT 14/02 A3027 RMK A01 T01430021  RH  044%=      5-min Rain = 0
KMC4 060150Z 35010KT 14/02 A3027 RMK A01 T01420021  RH  044%=      5-min Rain = 0
KMC4 060151Z 00009KT 14/02 A3027 RMK A01 T01420021  RH  044%=      5-min Rain = 0
KMC4 060152Z 00008KT 14/02 A3027 RMK A01 T01410021  RH  044%=      5-min Rain = 0
KMC4 060153Z 35011G17KT 14/02 A3027 RMK A01 T01410021  RH  044%=      5-min Rain = 0
KMC4 060154Z 35013KT 14/02 A3027 RMK A01 T01410021  RH  044%=      5-min Rain = 0
KMC4 060155Z 36013KT 14/02 A3028 RMK A01 T01410021  RH  044%=      5-min Rain = 0
KMC4 060156Z 00012KT 14/02 A3028 RMK A01 T01410021  RH  044%=      5-min Rain = 0
KMC4 060157Z 01012KT 14/02 A3028 RMK A01 T01400021  RH  044%=      5-min Rain = 0
KMC4 060158Z 00011KT 14/02 A3028 RMK A01 T01400021  RH  044%=      5-min Rain = 0
KMC4 060159Z 36014KT 14/02 A3028 RMK A01 T01400021  RH  044%=      5-min Rain = 0
KMC4 060200Z 00012KT 14/02 A3028 RMK A01 T01400021  RH  045%=      5-min Rain = 0
KMC4 060201Z 36011KT 14/02 A3028 RMK A01 T01400021  RH  045%=      5-min Rain = 0
KMC4 060202Z 00011KT 14/02 A3028 RMK A01 T01390021  RH  045%=      5-min Rain = 0
KMC4 060203Z 36015KT 14/02 A3028 RMK A01 T01390021  RH  045%=      5-min Rain = 0
KMC4 060204Z 36011KT 14/02 A3028 RMK A01 T01390021  RH  045%=      5-min Rain = 0
KMC4 060205Z 36008KT 14/02 A3028 RMK A01 T01380021  RH  045%=      5-min Rain = 0
KMC4 060206Z 36010KT 14/02 A3028 RMK A01 T01380021  RH  045%=      5-min Rain = 0
KMC4 060207Z 36010KT 14/02 A3028 RMK A01 T01380021  RH  045%=      5-min Rain = 0
KMC4 060208Z 36009KT 14/02 A3028 RMK A01 T01370021  RH  045%=      5-min Rain = 0
KMC4 060209Z 01015KT 14/02 A3028 RMK A01 T01370021  RH  045%=      5-min Rain = 0
KMC4 060210Z 01010KT 14/02 A3028 RMK A01 T01370021  RH  045%=      5-min Rain = 0
KMC4 060211Z 00010KT 14/02 A3028 RMK A01 T01370021  RH  045%=      5-min Rain = 0
KMC4 060212Z 36011KT 14/02 A3028 RMK A01 T01370020  RH  045%=      5-min Rain = 0
KMC4 060213Z 36011KT 14/02 A3028 RMK A01 T01370021  RH  045%=      5-min Rain = 0
KMC4 060214Z 36009G14KT 14/02 A3028 RMK A01 T01360020  RH  045%=      5-min Rain = 0
KMC4 060215Z 00009KT 14/02 A3028 RMK A01 T01360020  RH  045%=      5-min Rain = 0
KMC4 060216Z 36011G16KT 14/02 A3028 RMK A01 T01360020  RH  045%=      5-min Rain = 0
KMC4 060217Z 36013KT 14/02 A3028 RMK A01 T01360020  RH  045%=      5-min Rain = 0
KMC4 060218Z 36014KT 14/02 A3028 RMK A01 T01360020  RH  045%=      5-min Rain = 0
KMC4 060219Z 36009KT 14/02 A3028 RMK A01 T01360020  RH  045%=      5-min Rain = 0
KMC4 060220Z 36007KT 14/02 A3028 RMK A01 T01360020  RH  045%=      5-min Rain = 0
KMC4 060221Z 35009KT 14/02 A3028 RMK A01 T01350020  RH  046%=      5-min Rain = 0
KMC4 060222Z 36011KT 14/02 A3029 RMK A01 T01350020  RH  046%=      5-min Rain = 0
KMC4 060223Z 00010KT 14/02 A3029 RMK A01 T01350020  RH  046%=      5-min Rain = 0
KMC4 060224Z 36011KT 14/02 A3029 RMK A01 T01350020  RH  046%=      5-min Rain = 0
KMC4 060225Z 36009KT 14/02 A3029 RMK A01 T01350020  RH  046%=      5-min Rain = 0
KMC4 060226Z 00010KT 14/02 A3029 RMK A01 T01350019  RH  046%=      5-min Rain = 0
KMC4 060227Z 36013KT 13/02 A3029 RMK A01 T01340019  RH  046%=      5-min Rain = 0
KMC4 060228Z 35010KT 14/02 A3029 RMK A01 T01350019  RH  046%=      5-min Rain = 0
KMC4 060229Z 36009KT 14/02 A3029 RMK A01 T01350019  RH  046%=      5-min Rain = 0
KMC4 060230Z 00011KT 13/02 A3029 RMK A01 T01340019  RH  046%=      5-min Rain = 0
KMC4 060231Z 36010KT 13/02 A3029 RMK A01 T01340019  RH  046%=      5-min Rain = 0
KMC4 060232Z 36011KT 13/02 A3029 RMK A01 T01340019  RH  046%=      5-min Rain = 0
KMC4 060233Z 35012KT 13/02 A3029 RMK A01 T01340020  RH  046%=      5-min Rain = 0
KMC4 060234Z 35010KT 13/02 A3029 RMK A01 T01340019  RH  046%=      5-min Rain = 0
KMC4 060235Z 00010KT 13/02 A3029 RMK A01 T01340020  RH  046%=      5-min Rain = 0
KMC4 060236Z 36010KT 13/02 A3029 RMK A01 T01340019  RH  046%=      5-min Rain = 0
KMC4 060237Z 00011KT 13/02 A3029 RMK A01 T01330019  RH  046%=      5-min Rain = 0
KMC4 060238Z 36009KT 13/02 A3029 RMK A01 T01340020  RH  046%=      5-min Rain = 0
KMC4 060239Z 36011KT 13/02 A3029 RMK A01 T01340020  RH  046%=      5-min Rain = 0
KMC4 060240Z 35011KT 13/02 A3029 RMK A01 T01340019  RH  046%=      5-min Rain = 0
KMC4 060241Z 00010KT 13/02 A3029 RMK A01 T01330019  RH  046%=      5-min Rain = 0
KMC4 060242Z 00011KT 13/02 A3029 RMK A01 T01330019  RH  046%=      5-min Rain = 0
KMC4 060243Z 00010KT 13/02 A3029 RMK A01 T01330019  RH  046%=      5-min Rain = 0
KMC4 060244Z 36009KT 13/02 A3029 RMK A01 T01330019  RH  046%=      5-min Rain = 0
KMC4 060245Z 36009KT 13/02 A303 RMK A01 T01330019  RH  046%=      5-min Rain = 0
KMC4 060246Z 35008KT 13/02 A303 RMK A01 T01330019  RH  046%=      5-min Rain = 0
KMC4 060247Z 36008KT 13/02 A303 RMK A01 T01320019  RH  046%=      5-min Rain = 0
KMC4 060248Z 35009KT 13/02 A303 RMK A01 T01320019  RH  046%=      5-min Rain = 0
KMC4 060249Z 35009G14KT 13/02 A303 RMK A01 T01320018  RH  046%=      5-min Rain = 0
KMC4 060250Z 35009KT 13/02 A303 RMK A01 T01320019  RH  046%=      5-min Rain = 0
KMC4 060251Z 36007KT 13/02 A303 RMK A01 T01320019  RH  046%=      5-min Rain = 0
KMC4 060252Z 35006KT 13/02 A303 RMK A01 T01320018  RH  046%=      5-min Rain = 0
KMC4 060253Z 35009KT 13/02 A303 RMK A01 T01310018  RH  046%=      5-min Rain = 0
KMC4 060254Z 36010KT 13/02 A303 RMK A01 T01310018  RH  046%=      5-min Rain = 0
KMC4 060255Z 36008KT 13/02 A303 RMK A01 T01310018  RH  046%=      5-min Rain = 0
KMC4 060256Z 35008KT 13/02 A303 RMK A01 T01310018  RH  046%=      5-min Rain = 0
KMC4 060257Z 36008KT 13/02 A303 RMK A01 T01310018  RH  046%=      5-min Rain = 0
KMC4 060258Z 35006KT 13/02 A303 RMK A01 T01310018  RH  046%=      5-min Rain = 0
KMC4 060259Z 36006KT 13/02 A303 RMK A01 T01300018  RH  046%=      5-min Rain = 0
KMC4 060300Z 36007KT 13/02 A303 RMK A01 T01300018  RH  047%=      5-min Rain = 0
KMC4 060301Z 36006KT 13/02 A303 RMK A01 T01300018  RH  047%=      5-min Rain = 0
KMC4 060302Z 36006KT 13/02 A303 RMK A01 T01300018  RH  046%=      5-min Rain = 0
KMC4 060303Z 36006KT 13/02 A303 RMK A01 T01300018  RH  046%=      5-min Rain = 0
KMC4 060304Z 00007KT 13/02 A303 RMK A01 T01300018  RH  046%=      5-min Rain = 0
KMC4 060305Z 36006KT 13/02 A303 RMK A01 T01300018  RH  046%=      5-min Rain = 0
KMC4 060306Z 01006KT 13/02 A303 RMK A01 T01300018  RH  046%=      5-min Rain = 0
KMC4 060307Z 01007KT 13/02 A303 RMK A01 T01300018  RH  046%=      5-min Rain = 0
KMC4 060308Z 02006KT 13/02 A303 RMK A01 T01300018  RH  046%=      5-min Rain = 0
KMC4 060309Z 01004KT 13/02 A303 RMK A01 T01300018  RH  046%=      5-min Rain = 0
KMC4 060310Z 35007KT 13/02 A303 RMK A01 T01300018  RH  046%=      5-min Rain = 0
KMC4 060311Z 01008KT 13/02 A303 RMK A01 T01290017  RH  047%=      5-min Rain = 0
KMC4 060312Z 00009KT 13/02 A303 RMK A01 T01300017  RH  046%=      5-min Rain = 0
KMC4 060313Z 36008KT 13/02 A303 RMK A01 T01300017  RH  046%=      5-min Rain = 0
KMC4 060314Z 36008KT 13/02 A303 RMK A01 T01310018  RH  046%=      5-min Rain = 0
KMC4 060315Z 35010KT 13/02 A303 RMK A01 T01310018  RH  046%=      5-min Rain = 0
KMC4 060316Z 35007KT 13/02 A303 RMK A01 T01310018  RH  046%=      5-min Rain = 0
KMC4 060317Z 36008KT 13/02 A303 RMK A01 T01310018  RH  046%=      5-min Rain = 0
KMC4 060318Z 36008KT 13/02 A303 RMK A01 T01310018  RH  046%=      5-min Rain = 0
KMC4 060319Z 36007KT 13/02 A303 RMK A01 T01310018  RH  046%=      5-min Rain = 0
KMC4 060320Z 35005KT 13/02 A303 RMK A01 T01310018  RH  046%=      5-min Rain = 0
KMC4 060321Z 35007KT 13/02 A303 RMK A01 T01300018  RH  046%=      5-min Rain = 0
KMC4 060322Z 35009KT 13/02 A303 RMK A01 T01300018  RH  047%=      5-min Rain = 0
KMC4 060323Z 35008KT 13/02 A303 RMK A01 T01300018  RH  046%=      5-min Rain = 0
KMC4 060324Z 35007KT 13/02 A303 RMK A01 T01300018  RH  046%=      5-min Rain = 0
KMC4 060325Z 35008KT 13/02 A303 RMK A01 T01300018  RH  046%=      5-min Rain = 0
KMC4 060326Z 36009KT 13/02 A303 RMK A01 T01300018  RH  046%=      5-min Rain = 0
KMC4 060327Z 35008KT 13/02 A303 RMK A01 T01300018  RH  046%=      5-min Rain = 0
KMC4 060328Z 00008KT 13/02 A303 RMK A01 T01310019  RH  046%=      5-min Rain = 0
KMC4 060329Z 00008KT 13/02 A303 RMK A01 T01310019  RH  047%=      5-min Rain = 0
KMC4 060330Z 01007KT 13/02 A303 RMK A01 T01310019  RH  047%=      5-min Rain = 0
KMC4 060331Z 01006KT 13/02 A3031 RMK A01 T01310019  RH  047%=      5-min Rain = 0
KMC4 060332Z 01006KT 13/02 A3031 RMK A01 T01300019  RH  047%=      5-min Rain = 0
KMC4 060333Z 01007KT 13/02 A3031 RMK A01 T01300019  RH  047%=      5-min Rain = 0
KMC4 060334Z 01006KT 13/02 A3031 RMK A01 T01300019  RH  047%=      5-min Rain = 0
KMC4 060335Z 01005KT 13/02 A3031 RMK A01 T01300019  RH  047%=      5-min Rain = 0
KMC4 060336Z 03006KT 13/02 A3031 RMK A01 T01290019  RH  047%=      5-min Rain = 0
KMC4 060337Z 02006KT 13/02 A3031 RMK A01 T01280019  RH  047%=      5-min Rain = 0
KMC4 060338Z 02005KT 13/02 A3031 RMK A01 T01280020  RH  048%=      5-min Rain = 0
KMC4 060339Z 02007KT 13/02 A3031 RMK A01 T01280020  RH  048%=      5-min Rain = 0
KMC4 060340Z 03009KT 13/02 A3031 RMK A01 T01270021  RH  048%=      5-min Rain = 0
KMC4 060341Z 02009KT 13/02 A3031 RMK A01 T01280021  RH  048%=      5-min Rain = 0
KMC4 060342Z 02009KT 13/02 A3031 RMK A01 T01280022  RH  048%=      5-min Rain = 0
KMC4 060343Z 03008KT 13/02 A3031 RMK A01 T01280021  RH  048%=      5-min Rain = 0
KMC4 060344Z 02011KT 13/02 A3031 RMK A01 T01280022  RH  048%=      5-min Rain = 0
KMC4 060345Z 02011KT 13/02 A3031 RMK A01 T01270022  RH  049%=      5-min Rain = 0
KMC4 060346Z 02011KT 13/02 A3031 RMK A01 T01270021  RH  048%=      5-min Rain = 0
KMC4 060347Z 01006KT 13/02 A3031 RMK A01 T01270021  RH  048%=      5-min Rain = 0
KMC4 060348Z 02008KT 13/02 A3031 RMK A01 T01270021  RH  049%=      5-min Rain = 0
KMC4 060349Z 01008KT 13/02 A3031 RMK A01 T01270021  RH  049%=      5-min Rain = 0
KMC4 060350Z 02010KT 13/02 A3031 RMK A01 T01270021  RH  049%=      5-min Rain = 0
KMC4 060351Z 02007KT 13/02 A3031 RMK A01 T01270021  RH  049%=      5-min Rain = 0
KMC4 060352Z 02006KT 13/02 A3031 RMK A01 T01260021  RH  049%=      5-min Rain = 0
KMC4 060353Z 01007KT 13/02 A3031 RMK A01 T01250021  RH  049%=      5-min Rain = 0
KMC4 060354Z 01005KT 13/02 A3031 RMK A01 T01250021  RH  049%=      5-min Rain = 0
KMC4 060355Z 02005KT 12/02 A3031 RMK A01 T01240021  RH  049%=      5-min Rain = 0
KMC4 060356Z 02006KT 13/02 A3031 RMK A01 T01250021  RH  049%=      5-min Rain = 0
KMC4 060357Z 02007KT 12/02 A3031 RMK A01 T01240021  RH  049%=      5-min Rain = 0
KMC4 060358Z 02005KT 12/02 A3031 RMK A01 T01230020  RH  049%=      5-min Rain = 0
KMC4 060359Z 01006KT 12/02 A3031 RMK A01 T01230020  RH  049%=      5-min Rain = 0
KMC4 060400Z 01006KT 12/02 A3031 RMK A01 T01230020  RH  049%=      5-min Rain = 0
KMC4 060401Z 02006KT 12/02 A3031 RMK A01 T01230020  RH  049%=      5-min Rain = 0
KMC4 060402Z 01006KT 12/02 A3031 RMK A01 T01240021  RH  049%=      5-min Rain = 0
KMC4 060403Z 00006KT 12/02 A3031 RMK A01 T01230020  RH  049%=      5-min Rain = 0
KMC4 060404Z 00006KT 12/02 A3031 RMK A01 T01230020  RH  049%=      5-min Rain = 0
KMC4 060405Z 36004KT 12/02 A3031 RMK A01 T01230020  RH  049%=      5-min Rain = 0
KMC4 060406Z 00004KT 12/02 A3031 RMK A01 T01230020  RH  050%=      5-min Rain = 0
KMC4 060407Z 00005KT 12/02 A3031 RMK A01 T01220020  RH  050%=      5-min Rain = 0
KMC4 060408Z 00006KT 12/02 A3031 RMK A01 T01220020  RH  050%=      5-min Rain = 0
KMC4 060409Z 01005KT 12/02 A3031 RMK A01 T01210020  RH  050%=      5-min Rain = 0
KMC4 060410Z 01004KT 12/02 A3031 RMK A01 T01220020  RH  050%=      5-min Rain = 0
KMC4 060411Z 01004KT 12/02 A3031 RMK A01 T01220020  RH  050%=      5-min Rain = 0
KMC4 060412Z 01006KT 12/02 A3031 RMK A01 T01210020  RH  050%=      5-min Rain = 0
KMC4 060413Z 01007G12KT 12/02 A3031 RMK A01 T01210020  RH  050%=      5-min Rain = 0
KMC4 060414Z 01005KT 12/02 A3031 RMK A01 T01210020  RH  050%=      5-min Rain = 0
KMC4 060415Z 01006KT 12/02 A3031 RMK A01 T01210020  RH  050%=      5-min Rain = 0
KMC4 060416Z 01006KT 12/02 A3031 RMK A01 T01210020  RH  050%=      5-min Rain = 0
KMC4 060417Z 01006KT 12/02 A3031 RMK A01 T01210020  RH  050%=      5-min Rain = 0
KMC4 060418Z 01006KT 12/02 A3031 RMK A01 T01210020  RH  050%=      5-min Rain = 0
KMC4 060419Z 01006KT 12/02 A3031 RMK A01 T01210020  RH  050%=      5-min Rain = 0
KMC4 060420Z 00005KT 12/02 A3031 RMK A01 T01200020  RH  050%=      5-min Rain = 0
KMC4 060421Z 01004KT 12/02 A3032 RMK A01 T01200020  RH  050%=      5-min Rain = 0
KMC4 060422Z 01004KT 12/02 A3032 RMK A01 T01200020  RH  050%=      5-min Rain = 0
KMC4 060423Z 01004KT 12/02 A3032 RMK A01 T01190020  RH  051%=      5-min Rain = 0
KMC4 060424Z 00004KT 12/02 A3032 RMK A01 T01190020  RH  051%=      5-min Rain = 0
KMC4 060425Z 00004KT 12/02 A3032 RMK A01 T01200020  RH  051%=      5-min Rain = 0
KMC4 060426Z 01005KT 12/02 A3032 RMK A01 T01190020  RH  051%=      5-min Rain = 0
KMC4 060427Z 01006KT 12/02 A3032 RMK A01 T01190020  RH  051%=      5-min Rain = 0
KMC4 060428Z 01005KT 12/02 A3032 RMK A01 T01190021  RH  051%=      5-min Rain = 0
KMC4 060429Z 02005KT 12/02 A3032 RMK A01 T01180021  RH  051%=      5-min Rain = 0
KMC4 060430Z 01007KT 12/02 A3032 RMK A01 T01190021  RH  051%=      5-min Rain = 0
KMC4 060431Z 02006KT 12/02 A3032 RMK A01 T01190021  RH  051%=      5-min Rain = 0
KMC4 060432Z 01005KT 12/02 A3032 RMK A01 T01180020  RH  051%=      5-min Rain = 0
KMC4 060433Z 01004KT 12/02 A3032 RMK A01 T01180020  RH  051%=      5-min Rain = 0
KMC4 060434Z 03006KT 12/02 A3032 RMK A01 T01180021  RH  051%=      5-min Rain = 0
KMC4 060435Z 02006KT 12/02 A3032 RMK A01 T01180021  RH  051%=      5-min Rain = 0
KMC4 060436Z 03005KT 12/02 A3032 RMK A01 T01180021  RH  052%=      5-min Rain = 0
KMC4 060437Z 02005KT 12/02 A3032 RMK A01 T01170021  RH  052%=      5-min Rain = 0
KMC4 060438Z 02007KT 12/02 A3032 RMK A01 T01170021  RH  052%=      5-min Rain = 0
KMC4 060439Z 01006KT 12/02 A3032 RMK A01 T01160022  RH  052%=      5-min Rain = 0
KMC4 060440Z 01005KT 12/02 A3032 RMK A01 T01160022  RH  052%=      5-min Rain = 0
KMC4 060441Z 01005KT 12/02 A3032 RMK A01 T01160021  RH  052%=      5-min Rain = 0
KMC4 060442Z 01008KT 12/02 A3032 RMK A01 T01160021  RH  052%=      5-min Rain = 0
KMC4 060443Z 01008KT 12/02 A3032 RMK A01 T01160022  RH  052%=      5-min Rain = 0
KMC4 060444Z 00006KT 12/02 A3032 RMK A01 T01170022  RH  052%=      5-min Rain = 0
KMC4 060445Z 00006KT 12/02 A3032 RMK A01 T01160022  RH  052%=      5-min Rain = 0
KMC4 060446Z 00007KT 12/02 A3032 RMK A01 T01160022  RH  052%=      5-min Rain = 0
KMC4 060447Z 01008KT 12/02 A3032 RMK A01 T01170023  RH  052%=      5-min Rain = 0
KMC4 060448Z 01006KT 12/02 A3032 RMK A01 T01170023  RH  052%=      5-min Rain = 0
KMC4 060449Z 02006KT 12/02 A3032 RMK A01 T01160022  RH  052%=      5-min Rain = 0
KMC4 060450Z 01009KT 12/02 A3032 RMK A01 T01160023  RH  053%=      5-min Rain = 0
KMC4 060451Z 01005KT 12/02 A3032 RMK A01 T01150022  RH  053%=      5-min Rain = 0
KMC4 060452Z 02006KT 12/02 A3032 RMK A01 T01150023  RH  053%=      5-min Rain = 0
KMC4 060453Z 00005KT 12/02 A3032 RMK A01 T01150022  RH  053%=      5-min Rain = 0
KMC4 060454Z 01006KT 11/02 A3033 RMK A01 T01140023  RH  053%=      5-min Rain = 0
KMC4 060455Z 01008KT 11/02 A3033 RMK A01 T01140023  RH  053%=      5-min Rain = 0
KMC4 060456Z 01008KT 11/02 A3032 RMK A01 T01140023  RH  053%=      5-min Rain = 0
KMC4 060457Z 02007KT 11/02 A3033 RMK A01 T01140023  RH  053%=      5-min Rain = 0
KMC4 060458Z 01007KT 11/02 A3032 RMK A01 T01140023  RH  053%=      5-min Rain = 0
KMC4 060459Z 36007KT 11/02 A3032 RMK A01 T01140023  RH  054%=      5-min Rain = 0
KMC4 060500Z 36005KT 11/02 A3032 RMK A01 T01140023  RH  054%=      5-min Rain = 0
KMC4 060501Z 01007KT 11/02 A3032 RMK A01 T01140023  RH  054%=      5-min Rain = 0
KMC4 060502Z 36007KT 11/02 A3032 RMK A01 T01130023  RH  054%=      5-min Rain = 0
KMC4 060503Z 36004KT 11/02 A3032 RMK A01 T01130023  RH  054%=      5-min Rain = 0
KMC4 060504Z 01007KT 11/02 A3033 RMK A01 T01130023  RH  054%=      5-min Rain = 0
KMC4 060505Z 02005KT 11/02 A3033 RMK A01 T01130023  RH  054%=      5-min Rain = 0
KMC4 060506Z 02004KT 11/02 A3033 RMK A01 T01120023  RH  054%=      5-min Rain = 0
KMC4 060507Z 01005KT 11/02 A3033 RMK A01 T01120023  RH  054%=      5-min Rain = 0
KMC4 060508Z 01005KT 11/02 A3033 RMK A01 T01110023  RH  055%=      5-min Rain = 0
KMC4 060509Z 01003KT 11/02 A3033 RMK A01 T01110023  RH  055%=      5-min Rain = 0
KMC4 060510Z 01003KT 11/02 A3033 RMK A01 T01110023  RH  055%=      5-min Rain = 0
KMC4 060511Z 02008KT 11/02 A3032 RMK A01 T01110023  RH  055%=      5-min Rain = 0
KMC4 060512Z 01006KT 11/02 A3032 RMK A01 T01110023  RH  055%=      5-min Rain = 0
KMC4 060513Z 01007KT 11/02 A3032 RMK A01 T01110023  RH  055%=      5-min Rain = 0
KMC4 060514Z 02006KT 11/02 A3032 RMK A01 T01120023  RH  055%=      5-min Rain = 0
KMC4 060515Z 01005KT 11/02 A3032 RMK A01 T01120024  RH  055%=      5-min Rain = 0
KMC4 060516Z 01006KT 11/02 A3032 RMK A01 T01110023  RH  055%=      5-min Rain = 0
KMC4 060517Z 01004KT 11/02 A3032 RMK A01 T01110023  RH  055%=      5-min Rain = 0
KMC4 060518Z 01006KT 11/02 A3032 RMK A01 T01110023  RH  055%=      5-min Rain = 0
KMC4 060519Z 02005KT 11/02 A3032 RMK A01 T01110023  RH  055%=      5-min Rain = 0
KMC4 060520Z 01004KT 11/02 A3032 RMK A01 T01100023  RH  055%=      5-min Rain = 0
KMC4 060521Z 00005KT 11/02 A3032 RMK A01 T01100024  RH  055%=      5-min Rain = 0
KMC4 060522Z 00005KT 11/02 A3032 RMK A01 T01100024  RH  055%=      5-min Rain = 0
KMC4 060523Z 01005KT 11/02 A3032 RMK A01 T01100024  RH  055%=      5-min Rain = 0
KMC4 060524Z 00006KT 11/02 A3032 RMK A01 T01100024  RH  055%=      5-min Rain = 0
KMC4 060525Z 00004KT 11/02 A3032 RMK A01 T01090024  RH  055%=      5-min Rain = 0
KMC4 060526Z 00005KT 11/02 A3032 RMK A01 T01090024  RH  056%=      5-min Rain = 0
KMC4 060527Z 01004KT 11/02 A3032 RMK A01 T01090024  RH  056%=      5-min Rain = 0
KMC4 060528Z 00005KT 11/02 A3032 RMK A01 T01080024  RH  056%=      5-min Rain = 0
KMC4 060529Z 01005KT 11/02 A3032 RMK A01 T01080024  RH  056%=      5-min Rain = 0
KMC4 060530Z 01005KT 11/02 A3032 RMK A01 T01080024  RH  056%=      5-min Rain = 0
KMC4 060531Z 00005KT 11/02 A3032 RMK A01 T01080024  RH  056%=      5-min Rain = 0
KMC4 060532Z 00005KT 11/02 A3032 RMK A01 T01080024  RH  056%=      5-min Rain = 0
KMC4 060533Z 00005KT 11/02 A3032 RMK A01 T01070024  RH  056%=      5-min Rain = 0
KMC4 060534Z 00005KT 11/02 A3032 RMK A01 T01070024  RH  056%=      5-min Rain = 0
KMC4 060535Z 36006KT 11/02 A3032 RMK A01 T01070024  RH  056%=      5-min Rain = 0
KMC4 060536Z 36005KT 11/02 A3032 RMK A01 T01070024  RH  056%=      5-min Rain = 0
KMC4 060537Z 35005KT 11/02 A3032 RMK A01 T01070024  RH  056%=      5-min Rain = 0
KMC4 060538Z 36005KT 11/02 A3032 RMK A01 T01070024  RH  057%=      5-min Rain = 0
KMC4 060539Z 36006KT 11/02 A3032 RMK A01 T01070024  RH  057%=      5-min Rain = 0
KMC4 060540Z 36006KT 11/02 A3032 RMK A01 T01070024  RH  057%=      5-min Rain = 0
KMC4 060541Z 36005KT 11/02 A3032 RMK A01 T01060024  RH  057%=      5-min Rain = 0
KMC4 060542Z 36005KT 11/02 A3032 RMK A01 T01060024  RH  057%=      5-min Rain = 0
KMC4 060543Z 35005KT 11/02 A3032 RMK A01 T01060024  RH  057%=      5-min Rain = 0
KMC4 060544Z 35006KT 11/02 A3032 RMK A01 T01050024  RH  057%=      5-min Rain = 0
KMC4 060545Z 35005KT 11/02 A3032 RMK A01 T01050024  RH  057%=      5-min Rain = 0
KMC4 060546Z 35005KT 11/02 A3032 RMK A01 T01050024  RH  057%=      5-min Rain = 0
KMC4 060547Z 35005KT 11/02 A3032 RMK A01 T01050024  RH  057%=      5-min Rain = 0
KMC4 060548Z 34005KT 10/02 A3032 RMK A01 T01040024  RH  057%=      5-min Rain = 0
KMC4 060549Z 34005KT 10/02 A3032 RMK A01 T01040024  RH  058%=      5-min Rain = 0
KMC4 060550Z 35005KT 10/02 A3032 RMK A01 T01030024  RH  058%=      5-min Rain = 0
KMC4 060551Z 34005KT 10/02 A3032 RMK A01 T01020024  RH  058%=      5-min Rain = 0
KMC4 060552Z 34005KT 10/02 A3032 RMK A01 T01010024  RH  058%=      5-min Rain = 0
KMC4 060553Z 34005KT 10/02 A3032 RMK A01 T01010024  RH  058%=      5-min Rain = 0
KMC4 060554Z 34004KT 10/02 A3032 RMK A01 T01010024  RH  058%=      5-min Rain = 0
KMC4 060555Z 34005KT 10/02 A3033 RMK A01 T01000023  RH  059%=      5-min Rain = 0
KMC4 060556Z 33005KT 10/02 A3033 RMK A01 T00990023  RH  059%=      5-min Rain = 0
KMC4 060557Z 33005KT 10/02 A3033 RMK A01 T00980023  RH  060%=      5-min Rain = 0
KMC4 060558Z 33005KT 10/02 A3033 RMK A01 T00970023  RH  060%=      5-min Rain = 0
KMC4 060559Z 33004KT 10/02 A3032 RMK A01 T00950022  RH  060%=      5-min Rain = 0

Page generated in 0.0696 seconds.